Data for 08/21/2008

Time Sea-Level Adjusted Pressure Absolute Pressure Temperature Relative Humidity Dew Point Precipitation   
(mb) (inHg) (mb) (inHg) (C) (F) (%) (C) (F) (mm) (in)
00:01 1013 29.91 842 24.86 13.8 56.8 71 8.7 47.6 0
00:02 1013 29.91 842 24.86 13.6 56.5 72 8.6 47.5 0
00:03 1013 29.91 842 24.86 13.5 56.2 72 8.6 47.5 0
00:04 1013 29.91 842 24.86 13.4 56 73 8.6 47.6 0
00:05 1013 29.91 842 24.86 13.2 55.8 73 8.6 47.4 0
00:06 1013 29.91 842 24.86 13.2 55.7 73 8.4 47.1 0
00:07 1013 29.91 842 24.86 13.2 55.8 73 8.4 47.2 0
00:08 1013 29.91 842 24.86 13.2 55.7 73 8.5 47.4 0
00:09 1013 29.91 842 24.86 13 55.5 75 8.7 47.7 0
00:10 1013 29.91 842 24.86 12.9 55.1 76 8.8 47.9 0
00:11 1013 29.91 842 24.86 12.7 54.8 77 8.8 47.9 0
00:12 1013 29.91 842 24.86 12.5 54.5 78 8.8 47.8 0
00:13 1013 29.91 842 24.86 12.4 54.3 79 8.9 48 0
00:14 1013 29.91 842 24.86 12.3 54.1 79 8.8 47.8 0
00:15 1013 29.91 842 24.86 12.2 54 78 8.6 47.5 0
00:16 1013 29.91 842 24.86 12.4 54.2 77 8.4 47.1 0
00:17 1013 29.91 842 24.86 12.5 54.5 75 8.2 46.7 0
00:18 1013 29.91 842 24.86 12.7 54.9 73 8.1 46.6 0
00:19 1013 29.91 842 24.86 13 55.4 72 8.1 46.7 0
00:20 1013 29.91 842 24.86 13.1 55.6 72 8.1 46.7 0
00:21 1013 29.91 842 24.86 13.2 55.8 72 8.2 46.8 0
00:22 1013 29.91 842 24.86 13.2 55.7 72 8.2 46.8 0
00:23 1013 29.91 842 24.86 13.2 55.7 72 8.3 46.9 0
00:24 1013 29.91 842 24.86 13.2 55.7 72 8.2 46.8 0
00:25 1013 29.91 842 24.86 13.2 55.8 71 8.1 46.6 0
00:26 1013 29.91 842 24.86 13.3 55.9 71 8.1 46.7 0
00:27 1013 29.91 842 24.86 13.3 56 70 8.1 46.5 0
00:28 1013 29.91 842 24.86 13.3 56 71 8.2 46.8 0
00:29 1013 29.91 842 24.86 13.3 55.9 71 8.1 46.6 0
00:30 1013 29.91 842 24.86 13.3 55.9 72 8.3 46.9 0
00:31 1013 29.91 842 24.86 13.1 55.6 73 8.3 47 0
00:32 1013 29.91 842 24.86 13 55.4 71 8 46.3 0
00:33 1013 29.91 842 24.86 13.1 55.6 70 7.8 46 0
00:34 1013 29.91 842 24.86 13.3 55.9 70 7.9 46.2 0
00:35 1013 29.91 842 24.86 13.4 56.1 68 7.7 45.8 0
00:36 1013 29.91 842 24.86 13.5 56.3 68 7.7 45.9 0
00:37 1013 29.91 842 24.86 13.6 56.6 67 7.8 46 0
00:38 1013 29.91 842 24.86 13.7 56.7 68 7.9 46.3 0
00:39 1013 29.91 842 24.86 13.8 56.8 66 7.7 45.8 0
00:40 1013 29.91 842 24.86 13.9 57 69 8.3 47 0
00:41 1013 29.91 842 24.86 13.6 56.5 71 8.5 47.2 0
00:42 1013 29.91 842 24.86 13.3 55.9 72 8.4 47.1 0
00:43 1013 29.91 842 24.86 13.1 55.6 71 8 46.4 0
00:44 1013 29.91 842 24.86 13.2 55.8 70 7.9 46.1 0
00:45 1013 29.91 842 24.86 13.4 56.1 69 8 46.4 0
00:46 1013 29.91 842 24.86 13.4 56.2 70 8.2 46.7 0
00:47 1013 29.91 842 24.86 13.4 56 71 8.2 46.7 0
00:48 1013 29.91 842 24.86 13.3 55.9 71 8.1 46.6 0
00:49 1013 29.91 842 24.86 13.3 55.9 71 8.2 46.8 0
00:50 1013 29.91 842 24.86 13.2 55.7 71 8.1 46.6 0
00:51 1013 29.91 842 24.86 13.2 55.8 71 8.1 46.6 0
00:52 1013 29.91 842 24.86 13.3 55.9 70 7.9 46.3 0
00:53 1013 29.91 842 24.86 13.3 56 70 8.1 46.6 0
00:54 1013 29.91 842 24.86 13.3 56 70 8 46.5 0
00:55 1013 29.91 842 24.86 13.3 56 70 8 46.4 0
00:56 1013 29.91 842 24.86 13.3 55.9 70 8 46.5 0
00:57 1013 29.91 842 24.86 13.2 55.8 70 8 46.4 0
00:58 1013 29.91 842 24.86 13.2 55.8 71 8 46.4 0
00:59 1013 29.91 842 24.86 13.1 55.6 71 8 46.4 0
01:00 1013 29.91 842 24.86 13.1 55.5 72 8.1 46.5 0
01:01 1013 29.91 842 24.86 12.9 55.3 73 8.3 46.9 0
01:02 1013 29.91 842 24.86 12.8 55 73 8.1 46.7 0
01:03 1013 29.91 842 24.86 12.5 54.5 74 8.1 46.6 0
01:04 1013 29.91 842 24.86 12.4 54.3 73 7.8 46 0
01:05 1013 29.91 842 24.86 12.5 54.4 72 7.7 45.8 0
01:06 1013 29.91 842 24.86 12.6 54.7 72 7.6 45.8 0
01:07 1013 29.91 842 24.86 12.8 55 71 7.6 45.7 0
01:08 1013 29.91 842 24.86 12.9 55.2 70 7.6 45.6 0
01:09 1013 29.91 842 24.86 13.1 55.5 69 7.6 45.6 0
01:10 1013 29.91 842 24.86 13.2 55.7 68 7.4 45.4 0
01:11 1013 29.91 842 24.86 13.4 56.1 66 7.1 44.8 0
01:12 1013 29.91 842 24.86 13.7 56.6 65 7.3 45.2 0
01:13 1013 29.91 842 24.86 13.8 56.8 65 7.4 45.4 0
01:14 1013 29.91 842 24.86 13.8 56.8 64 7.2 45 0
01:15 1013 29.91 842 24.86 13.9 56.9 63 7.1 44.7 0
01:16 1013 29.91 842 24.86 13.9 57 64 7.3 45.1 0
01:17 1013 29.91 842 24.86 14 57.3 62 6.9 44.4 0
01:18 1013 29.91 842 24.86 14.4 57.8 61 7.1 44.8 0
01:19 1013 29.91 842 24.86 14.5 58.1 61 7 44.6 0
01:20 1013 29.91 842 24.86 14.5 58.2 60 7.1 44.7 0
01:21 1013 29.91 842 24.86 14.6 58.3 59 6.9 44.4 0
01:22 1013 29.91 842 24.86 14.7 58.4 62 7.5 45.6 0
01:23 1013 29.91 842 24.86 14.2 57.6 65 7.9 46.1 0
01:24 1013 29.91 842 24.86 13.7 56.6 67 7.7 45.9 0
01:25 1013 29.91 842 24.86 13.4 56.1 67 7.4 45.4 0
01:26 1013 29.91 842 24.86 13.4 56.1 67 7.4 45.4 0
01:27 1013 29.91 842 24.86 13.4 56.1 67 7.4 45.4 0
01:28 1013 29.91 842 24.86 13.4 56.1 67 7.4 45.3 0
01:29 1013 29.91 842 24.86 13.1 55.6 69 7.5 45.5 0
01:30 1013 29.91 842 24.86 12.8 55 70 7.5 45.5 0
01:31 1013 29.91 842 24.86 12.6 54.7 70 7.4 45.4 0
01:32 1013 29.91 842 24.86 12.6 54.6 70 7.4 45.3 0
01:33 1013 29.91 842 24.86 12.6 54.8 70 7.4 45.2 0
01:34 1013 29.91 842 24.86 12.8 55 69 7.2 45 0
01:35 1013 29.91 842 24.86 13 55.4 68 7.2 44.9 0
01:36 1013 29.91 842 24.86 13 55.4 68 7.3 45.1 0
01:37 1013 29.91 842 24.86 12.8 55 69 7.4 45.3 0
01:38 1013 29.91 842 24.86 12.7 54.8 70 7.3 45.2 0
01:39 1013 29.91 842 24.86 12.7 54.8 69 7.3 45.1 0
01:40 1013 29.91 842 24.86 12.7 54.8 69 7.2 45 0
01:41 1013 29.91 842 24.86 12.7 54.8 69 7.2 45 0
01:42 1013 29.91 842 24.86 12.6 54.6 69 7.2 44.9 0
01:43 1013 29.91 842 24.86 12.5 54.5 70 7.2 44.9 0
01:44 1013 29.91 842 24.86 12.4 54.3 70 7.2 44.9 0
01:45 1013 29.91 842 24.86 12.1 53.9 71 7.1 44.8 0
01:46 1013 29.91 842 24.86 11.7 53.1 73 7 44.6 0
01:47 1013 29.91 842 24.86 11.3 52.3 75 6.9 44.5 0
01:48 1013 29.91 842 24.86 11 51.9 76 6.9 44.4 0
01:49 1013 29.91 842 24.86 10.9 51.6 76 6.8 44.3 0
01:50 1013 29.91 842 24.86 11 51.7 75 6.8 44.2 0
01:51 1013 29.91 842 24.86 11 51.8 76 6.9 44.5 0
01:52 1013 29.91 842 24.86 11.2 52.2 75 6.9 44.4 0
01:53 1013 29.91 842 24.86 11.5 52.8 73 6.9 44.4 0
01:54 1013 29.91 842 24.86 11.7 53 72 6.9 44.4 0
01:55 1013 29.91 842 24.86 11.7 53 72 6.9 44.4 0
01:56 1013 29.91 842 24.86 11.7 53 73 7 44.5 0
01:57 1013 29.91 842 24.86 11.7 53 72 6.8 44.2 0
01:58 1013 29.91 842 24.86 11.5 52.6 71 6.4 43.6 0
01:59 1013 29.91 842 24.86 10.9 51.7 74 6.4 43.6 0
02:00 1013 29.91 842 24.86 10.5 50.8 76 6.5 43.6 0
02:01 1013 29.91 842 24.86 10 49.9 78 6.3 43.3 0
02:02 1013 29.91 842 24.86 9.6 49.3 82 6.7 44 0
02:03 1013 29.91 842 24.86 9.5 49.1 81 6.3 43.4 0
02:04 1013 29.91 842 24.86 9.4 48.9 81 6.3 43.3 0
02:05 1013 29.91 842 24.86 9.3 48.8 80 6.1 43 0
02:06 1013 29.91 842 24.86 9.3 48.7 80 6 42.8 0
02:07 1013 29.91 842 24.86 9.1 48.3 80 5.9 42.5 0
02:08 1013 29.91 842 24.86 8.7 47.7 81 5.7 42.3 0
02:09 1013 29.91 842 24.86 8.3 47 84 5.8 42.4 0
02:10 1013 29.91 842 24.86 8.1 46.6 85 5.7 42.3 0
02:11 1013 29.91 842 24.86 7.9 46.2 86 5.7 42.3 0
02:12 1013 29.91 842 24.86 7.8 46 88 5.9 42.6 0
02:13 1013 29.91 842 24.86 7.9 46.1 88 5.9 42.7 0
02:14 1013 29.91 842 24.86 7.9 46.2 88 6 42.8 0
02:15 1013 29.91 842 24.86 8 46.5 88 6.2 43.1 0
02:16 1013 29.91 842 24.86 8.2 46.8 87 6.2 43.1 0
02:17 1013 29.91 842 24.86 8.4 47.1 86 6.2 43.1 0
02:18 1013 29.91 842 24.86 8.5 47.3 85 6.1 43 0
02:19 1013 29.91 842 24.86 8.6 47.4 84 6.1 42.9 0
02:20 1013 29.91 842 24.86 8.5 47.3 85 6.2 43.2 0
02:21 1013 29.91 842 24.86 8.6 47.4 85 6.3 43.3 0
02:22 1013 29.91 842 24.86 8.7 47.6 85 6.3 43.4 0
02:23 1013 29.91 842 24.86 8.8 47.8 85 6.4 43.5 0
02:24 1013 29.91 842 24.86 8.9 48 85 6.5 43.7 0
02:25 1013 29.91 842 24.86 9 48.1 85 6.6 43.8 0
02:26 1013 29.91 842 24.86 9.1 48.3 85 6.7 44 0
02:27 1013 29.91 842 24.86 9.2 48.5 85 6.7 44.1 0
02:28 1013 29.91 842 24.86 9.3 48.7 84 6.8 44.3 0
02:29 1013 29.91 842 24.86 9.5 49.1 84 6.9 44.5 0
02:30 1013 29.91 842 24.86 9.7 49.4 83 7 44.6 0
02:31 1013 29.91 842 24.86 9.8 49.7 83 7.1 44.7 0
02:32 1013 29.91 842 24.86 10 49.9 82 7 44.7 0
02:33 1013 29.91 842 24.86 10 49.9 82 7.1 44.7 0
02:34 1013 29.91 842 24.86 9.9 49.7 83 7.1 44.8 0
02:35 1013 29.91 842 24.86 9.8 49.6 83 7.1 44.8 0
02:36 1013 29.91 842 24.86 9.8 49.7 84 7.3 45.1 0
02:37 1013 29.91 842 24.86 9.9 49.8 84 7.3 45.2 0
02:38 1013 29.91 842 24.86 10 50 84 7.4 45.4 0
02:39 1013 29.91 842 24.86 10.2 50.4 83 7.4 45.4 0
02:40 1013 29.91 842 24.86 10.3 50.6 82 7.4 45.3 0
02:41 1013 29.91 842 24.86 10.4 50.7 81 7.4 45.3 0
02:42 1013 29.91 842 24.86 10.4 50.7 81 7.3 45.2 0
02:43 1013 29.91 842 24.86 10.3 50.6 81 7.3 45.1 0
02:44 1013 29.91 842 24.86 10.3 50.5 82 7.3 45.2 0
02:45 1013 29.91 842 24.86 10.2 50.3 82 7.3 45.1 0
02:46 1013 29.91 842 24.86 10.1 50.1 83 7.3 45.1 0
02:47 1013 29.91 842 24.86 10.1 50.1 83 7.3 45.1 0
02:48 1013 29.91 842 24.86 10.1 50.2 83 7.3 45.1 0
02:49 1013 29.91 842 24.86 9.9 49.9 83 7.2 44.9 0
02:50 1013 29.91 842 24.86 9.7 49.5 84 7.1 44.8 0
02:51 1013 29.91 842 24.86 9.5 49.1 84 7 44.7 0
02:52 1013 29.91 842 24.86 9.3 48.8 85 6.9 44.5 0
02:53 1013 29.91 842 24.86 9.2 48.5 86 6.9 44.5 0
02:54 1013 29.91 842 24.86 9.1 48.3 87 7.1 44.7 0
02:55 1013 29.91 842 24.86 9.1 48.4 88 7.2 44.9 0
02:56 1013 29.91 842 24.86 9.2 48.5 87 7.1 44.8 0
02:57 1013 29.91 842 24.86 9.1 48.4 87 7.1 44.7 0
02:58 1013 29.91 842 24.86 9.1 48.3 87 7 44.6 0
02:59 1013 29.91 842 24.86 9 48.2 87 7 44.6 0
03:00 1013 29.91 842 24.86 8.9 48.1 87 6.9 44.5 0
03:01 1013 29.91 842 24.86 8.8 47.9 87 6.8 44.3 0
03:02 1013 29.91 842 24.86 8.7 47.7 88 6.8 44.3 0
03:03 1013 29.91 842 24.86 8.6 47.5 88 6.7 44.1 0
03:04 1013 29.91 842 24.86 8.5 47.3 88 6.7 44 0
03:05 1013 29.91 842 24.86 8.4 47.1 89 6.7 44 0
03:06 1013 29.91 842 24.86 8.3 47 89 6.7 44 0
03:07 1013 29.91 842 24.86 8.3 47 89 6.7 44 0
03:08 1013 29.91 842 24.86 8.3 46.9 89 6.6 43.9 0
03:09 1013 29.91 842 24.86 8.2 46.8 89 6.6 43.8 0
03:10 1013 29.91 842 24.86 8.2 46.7 90 6.5 43.8 0
03:11 1013 29.91 842 24.86 8.1 46.6 90 6.6 43.8 0
03:12 1013 29.91 842 24.86 8.1 46.6 90 6.5 43.8 0
03:13 1013 29.91 842 24.86 8.1 46.5 90 6.5 43.6 0
03:14 1013 29.91 842 24.86 8 46.4 90 6.4 43.5 0
03:15 1013 29.91 842 24.86 8 46.4 90 6.5 43.7 0
03:16 1013 29.91 842 24.86 8 46.3 90 6.5 43.6 0
03:17 1013 29.91 842 24.86 7.9 46.3 90 6.4 43.5 0
03:18 1013 29.91 842 24.86 7.8 46.1 90 6.3 43.3 0
03:19 1013 29.91 842 24.86 7.8 46 90 6.3 43.3 0
03:20 1013 29.91 842 24.86 7.7 45.9 91 6.3 43.4 0
03:21 1013 29.91 842 24.86 7.7 45.8 91 6.3 43.4 0
03:22 1013 29.91 842 24.86 7.6 45.7 92 6.4 43.5 0
03:23 1013 29.91 842 24.86 7.8 46 93 6.7 44 0
03:24 1013 29.91 842 24.86 8 46.4 92 6.8 44.2 0
03:25 1013 29.91 842 24.86 8.2 46.8 92 6.9 44.5 0
03:26 1013 29.91 842 24.86 8.5 47.3 90 7 44.6 0
03:27 1013 29.91 842 24.86 8.9 48 88 7 44.7 0
03:28 1013 29.91 842 24.86 9.2 48.6 85 6.9 44.4 0
03:29 1013 29.91 842 24.86 9.4 48.9 85 7 44.7 0
03:30 1013 29.91 842 24.86 9.5 49 84 6.9 44.5 0
03:31 1013 29.91 842 24.86 9.5 49.1 85 7 44.7 0
03:32 1013 29.91 842 24.86 9.5 49 84 6.9 44.4 0
03:33 1013 29.91 842 24.86 9.5 49 84 7 44.5 0
03:34 1013 29.91 842 24.86 9.4 49 84 6.9 44.5 0
03:35 1013 29.91 842 24.86 9.4 48.9 85 7 44.5 0
03:36 1013 29.91 842 24.86 9.4 49 85 7 44.5 0
03:37 1013 29.91 842 24.86 9.5 49 84 6.9 44.5 0
03:38 1013 29.91 842 24.86 9.5 49.1 84 7 44.6 0
03:39 1013 29.91 842 24.86 9.5 49.1 85 7.1 44.7 0
03:40 1013 29.91 842 24.86 9.6 49.2 84 7.1 44.7 0
03:41 1013 29.91 842 24.86 9.7 49.5 83 7 44.7 0
03:42 1013 29.91 842 24.86 9.7 49.5 81 6.6 43.9 0
03:43 1013 29.91 842 24.86 9.5 49 82 6.5 43.7 0
03:44 1013 29.91 842 24.86 9.2 48.5 83 6.5 43.7 0
03:45 1013 29.91 842 24.86 9 48.2 85 6.6 43.8 0
03:46 1013 29.91 842 24.86 8.9 48.1 85 6.5 43.8 0
03:47 1013 29.91 842 24.86 8.9 47.9 84 6.4 43.4 0
03:48 1013 29.91 842 24.86 8.7 47.6 85 6.3 43.4 0
03:49 1013 29.91 842 24.86 8.7 47.6 88 6.7 44.1 0
03:50 1013 29.91 842 24.86 8.8 47.8 85 6.4 43.6 0
03:51 1013 29.91 842 24.86 8.7 47.7 85 6.3 43.4 0
03:52 1013 29.91 842 24.86 8.5 47.3 86 6.3 43.4 0
03:53 1013 29.91 842 24.86 8.5 47.2 87 6.4 43.5 0
03:54 1013 29.91 842 24.86 8.4 47.1 87 6.4 43.5 0
03:55 1013 29.91 842 24.86 8.3 47 87 6.4 43.4 0
03:56 1013 29.91 842 24.86 8.2 46.8 88 6.3 43.4 0
03:57 1013 29.91 842 24.86 8.2 46.7 88 6.3 43.3 0
03:58 1013 29.91 842 24.86 8.1 46.6 88 6.2 43.2 0
03:59 1013 29.91 842 24.86 8.1 46.6 88 6.3 43.3 0
04:00 1013 29.91 842 24.86 8.1 46.6 88 6.3 43.3 0
04:01 1013 29.91 842 24.86 8 46.5 88 6.2 43.1 0
04:02 1013 29.91 842 24.86 8 46.4 88 6.1 43 0
04:03 1013 29.91 842 24.86 7.9 46.2 89 6.1 43 0
04:04 1013 29.91 842 24.86 7.9 46.1 89 6.2 43.1 0
04:05 1013 29.91 842 24.86 7.9 46.2 89 6.1 43 0
04:06 1013 29.91 842 24.86 7.9 46.2 88 6.1 43 0
04:07 1013 29.91 842 24.86 8 46.3 89 6.3 43.3 0
04:08 1013 29.91 842 24.86 8 46.4 89 6.3 43.4 0
04:09 1013 29.91 842 24.86 8.2 46.7 89 6.4 43.6 0
04:10 1013 29.91 842 24.86 8.2 46.8 88 6.4 43.5 0
04:11 1013 29.91 842 24.86 8.3 47 87 6.3 43.3 0
04:12 1013 29.91 843 24.89 8.3 46.9 87 6.3 43.4 0
04:13 1014 29.94 843 24.89 8.2 46.8 88 6.4 43.5 0
04:14 1014 29.94 843 24.89 8.1 46.5 90 6.5 43.7 0
04:15 1014 29.94 843 24.89 8.1 46.5 90 6.6 43.9 0
04:16 1014 29.94 843 24.89 8.2 46.8 90 6.7 44.1 0
04:17 1014 29.94 843 24.89 8.3 47 90 6.8 44.3 0
04:18 1014 29.94 843 24.89 8.4 47.2 90 6.9 44.5 0
04:19 1014 29.94 843 24.89 8.5 47.4 90 7 44.7 0
04:20 1014 29.94 843 24.89 8.7 47.6 90 7.1 44.8 0
04:21 1014 29.94 843 24.89 8.8 47.9 90 7.2 45 0
04:22 1014 29.94 843 24.89 9 48.2 89 7.3 45.2 0
04:23 1014 29.94 843 24.89 9.2 48.6 89 7.4 45.4 0
04:24 1014 29.94 843 24.89 9.5 49.1 88 7.6 45.6 0
04:25 1014 29.94 843 24.89 9.6 49.4 87 7.6 45.7 0
04:26 1014 29.94 843 24.89 9.7 49.5 87 7.6 45.7 0
04:27 1014 29.94 843 24.89 9.8 49.6 86 7.6 45.7 0
04:28 1014 29.94 843 24.89 9.9 49.7 86 7.6 45.7 0
04:29 1014 29.94 843 24.89 10.1 50.2 85 7.7 45.9 0
04:30 1014 29.94 843 24.89 10.2 50.4 84 7.7 45.8 0
04:31 1014 29.94 843 24.89 10.3 50.6 84 7.8 46.1 0
04:32 1014 29.94 843 24.89 10.4 50.7 84 7.9 46.1 0
04:33 1014 29.94 843 24.89 10.4 50.7 84 7.9 46.2 0
04:34 1014 29.94 843 24.89 10.4 50.7 84 7.9 46.2 0
04:35 1014 29.94 843 24.89 10.4 50.7 85 7.9 46.2 0
04:36 1014 29.94 843 24.89 10.4 50.7 85 7.9 46.3 0
04:37 1013 29.91 843 24.89 10.4 50.6 84 7.8 46.1 0
04:38 1013 29.91 843 24.89 10.3 50.6 85 7.9 46.2 0
04:39 1013 29.91 843 24.89 10.3 50.5 85 7.9 46.2 0
04:40 1013 29.91 843 24.89 10.1 50.2 85 7.8 46 0
04:41 1013 29.91 843 24.89 10.1 50.2 85 7.8 46 0
04:42 1014 29.94 843 24.89 10.1 50.3 85 7.8 46 0
04:43 1014 29.94 843 24.89 10.2 50.4 85 7.8 46 0
04:44 1014 29.94 843 24.89 10.2 50.4 84 7.7 45.9 0
04:45 1014 29.94 843 24.89 10.3 50.5 84 7.7 45.8 0
04:46 1013 29.91 843 24.89 10.2 50.4 84 7.6 45.6 0
04:47 1013 29.91 843 24.89 10.2 50.3 83 7.5 45.5 0
04:48 1013 29.91 843 24.89 10 50 84 7.4 45.3 0
04:49 1013 29.91 842 24.86 9.8 49.6 85 7.3 45.2 0
04:50 1013 29.91 842 24.86 9.6 49.3 86 7.3 45.2 0
04:51 1013 29.91 842 24.86 9.5 49.1 85 7.2 44.9 0
04:52 1013 29.91 842 24.86 9.5 49.2 85 7.2 45 0
04:53 1013 29.91 842 24.86 9.5 49.1 85 7 44.7 0
04:54 1013 29.91 843 24.89 9.3 48.8 85 6.9 44.4 0
04:55 1013 29.91 843 24.89 9.2 48.5 86 6.9 44.4 0
04:56 1013 29.91 843 24.89 9 48.3 86 6.9 44.4 0
04:57 1013 29.91 843 24.89 9 48.2 86 6.9 44.4 0
04:58 1013 29.91 843 24.89 9 48.1 87 6.9 44.4 0
04:59 1013 29.91 843 24.89 8.9 48 87 6.8 44.3 0
05:00 1013 29.91 843 24.89 8.8 47.9 87 6.8 44.3 0
05:01 1013 29.91 843 24.89 8.8 47.8 88 6.9 44.4 0
05:02 1013 29.91 843 24.89 8.8 47.8 88 6.9 44.4 0
05:03 1013 29.91 843 24.89 8.8 47.8 88 6.9 44.4 0
05:04 1013 29.91 843 24.89 8.8 47.9 88 7 44.5 0
05:05 1013 29.91 843 24.89 8.8 47.9 88 6.9 44.5 0
05:06 1013 29.91 843 24.89 8.9 48 88 7 44.5 0
05:07 1013 29.91 843 24.89 8.9 48 88 7 44.6 0
05:08 1013 29.91 843 24.89 8.9 48 88 7 44.6 0
05:09 1013 29.91 842 24.86 8.8 47.9 88 7 44.6 0
05:10 1013 29.91 842 24.86 8.7 47.7 89 7 44.6 0
05:11 1013 29.91 842 24.86 8.8 47.8 89 7.1 44.7 0
05:12 1013 29.91 842 24.86 8.8 47.9 89 7.1 44.8 0
05:13 1013 29.91 842 24.86 8.9 48 89 7.1 44.8 0
05:14 1013 29.91 842 24.86 9 48.2 89 7.2 45 0
05:15 1013 29.91 842 24.86 9 48.3 89 7.3 45.1 0
05:16 1013 29.91 842 24.86 9.1 48.4 88 7.3 45.2 0
05:17 1013 29.91 842 24.86 9.2 48.6 88 7.4 45.3 0
05:18 1013 29.91 842 24.86 9.3 48.7 88 7.4 45.3 0
05:19 1013 29.91 842 24.86 9.3 48.7 88 7.3 45.2 0
05:20 1013 29.91 842 24.86 9.2 48.6 88 7.3 45.1 0
05:21 1013 29.91 842 24.86 9.3 48.7 87 7.3 45.1 0
05:22 1013 29.91 842 24.86 9.3 48.7 87 7.3 45.1 0
05:23 1013 29.91 842 24.86 9.3 48.7 87 7.3 45.1 0
05:24 1013 29.91 842 24.86 9.3 48.7 87 7.2 44.9 0
05:25 1013 29.91 842 24.86 9.2 48.6 87 7.2 45 0
05:26 1013 29.91 842 24.86 9.2 48.6 87 7.2 45 0
05:27 1013 29.91 842 24.86 9.2 48.5 87 7.2 44.9 0
05:28 1013 29.91 842 24.86 9.2 48.6 87 7.2 44.9 0
05:29 1013 29.91 842 24.86 9.2 48.6 87 7.2 44.9 0
05:30 1013 29.91 842 24.86 9.3 48.7 87 7.2 44.9 0
05:31 1013 29.91 842 24.86 9.2 48.6 87 7.1 44.8 0
05:32 1013 29.91 842 24.86 9.2 48.6 86 7.1 44.8 0
05:33 1013 29.91 842 24.86 9.2 48.6 86 7.1 44.7 0
05:34 1013 29.91 842 24.86 9.2 48.5 87 7.1 44.8 0
05:35 1013 29.91 842 24.86 9.1 48.4 87 7.1 44.7 0
05:36 1013 29.91 842 24.86 9.1 48.4 88 7.2 44.9 0
05:37 1013 29.91 842 24.86 9.2 48.5 86 7 44.6 0
05:38 1013 29.91 842 24.86 9.1 48.4 87 7.1 44.8 0
05:39 1013 29.91 842 24.86 9.2 48.6 87 7.2 44.9 0
05:40 1013 29.91 842 24.86 9.2 48.6 86 7.1 44.8 0
05:41 1013 29.91 842 24.86 9.3 48.7 86 7.1 44.8 0
05:42 1013 29.91 842 24.86 9.2 48.5 87 7.1 44.8 0
05:43 1013 29.91 842 24.86 9.2 48.6 87 7.1 44.8 0
05:44 1013 29.91 842 24.86 9.2 48.5 87 7.2 44.9 0
05:45 1013 29.91 842 24.86 9.2 48.5 87 7.1 44.8 0
05:46 1013 29.91 842 24.86 9.1 48.4 88 7.2 44.9 0
05:47 1013 29.91 842 24.86 9.2 48.5 87 7.2 44.9 0
05:48 1013 29.91 842 24.86 9.2 48.6 87 7.2 45 0
05:49 1013 29.91 842 24.86 9.2 48.5 87 7.2 44.9 0
05:50 1013 29.91 842 24.86 9.2 48.6 87 7.2 45 0
05:51 1013 29.91 842 24.86 9.2 48.6 87 7.2 45 0
05:52 1013 29.91 842 24.86 9.2 48.6 87 7.2 44.9 0
05:53 1013 29.91 842 24.86 9.3 48.7 87 7.2 44.9 0
05:54 1013 29.91 842 24.86 9.2 48.6 87 7.1 44.9 0
05:55 1013 29.91 842 24.86 9.2 48.5 87 7.1 44.8 0
05:56 1013 29.91 842 24.86 9.1 48.4 87 7.1 44.7 0
05:57 1013 29.91 842 24.86 9 48.3 86 6.8 44.3 0
05:58 1013 29.91 842 24.86 8.9 48 86 6.6 43.9 0
05:59 1013 29.91 842 24.86 8.7 47.6 87 6.7 44 0
06:00 1013 29.91 842 24.86 8.6 47.4 88 6.7 44 0
06:01 1013 29.91 842 24.86 8.5 47.2 89 6.8 44.3 0
06:02 1013 29.91 842 24.86 8.4 47.2 89 6.8 44.2 0
06:03 1013 29.91 842 24.86 8.5 47.3 90 6.9 44.4 0
06:04 1013 29.91 842 24.86 8.6 47.5 89 7 44.5 0
06:05 1013 29.91 842 24.86 8.8 47.9 88 7 44.6 0
06:06 1013 29.91 842 24.86 9 48.1 87 7 44.6 0
06:07 1013 29.91 842 24.86 9.1 48.3 87 7 44.7 0
06:08 1013 29.91 842 24.86 9.2 48.6 87 7.2 44.9 0
06:09 1013 29.91 842 24.86 9.4 48.9 87 7.3 45.1 0
06:10 1013 29.91 842 24.86 9.6 49.2 85 7.1 44.8 0
06:11 1013 29.91 842 24.86 9.7 49.5 83 7.1 44.7 0
06:12 1013 29.91 842 24.86 9.8 49.6 85 7.3 45.2 0
06:13 1013 29.91 842 24.86 10 49.9 83 7.2 45 0
06:14 1013 29.91 842 24.86 10.3 50.5 81 7.3 45.1 0
06:15 1013 29.91 842 24.86 10.4 50.6 80 7.1 44.7 0
06:16 1013 29.91 842 24.86 10.3 50.5 80 7 44.6 0
06:17 1013 29.91 842 24.86 10.1 50.2 80 6.9 44.4 0
06:18 1013 29.91 842 24.86 9.8 49.6 82 6.8 44.3 0
06:19 1013 29.91 842 24.86 9.4 49 83 6.8 44.2 0
06:20 1013 29.91 842 24.86 9.2 48.5 85 6.9 44.4 0
06:21 1013 29.91 842 24.86 9 48.2 85 6.7 44.1 0
06:22 1013 29.91 842 24.86 8.9 48 86 6.7 44.1 0
06:23 1013 29.91 842 24.86 8.8 47.8 87 6.7 44.1 0
06:24 1013 29.91 842 24.86 8.7 47.7 87 6.7 44.1 0
06:25 1013 29.91 842 24.86 8.6 47.5 88 6.8 44.2 0
06:26 1013 29.91 842 24.86 8.6 47.6 88 6.8 44.3 0
06:27 1013 29.91 842 24.86 8.7 47.6 88 6.8 44.3 0
06:28 1013 29.91 842 24.86 8.7 47.7 87 6.7 44.1 0
06:29 1013 29.91 842 24.86 8.8 47.8 87 6.8 44.2 0
06:30 1013 29.91 842 24.86 8.8 47.8 87 6.6 44 0
06:31 1013 29.91 842 24.86 8.6 47.5 86 6.4 43.6 0
06:32 1013 29.91 842 24.86 8.5 47.2 87 6.4 43.5 0
06:33 1013 29.91 842 24.86 8.3 46.9 88 6.4 43.6 0
06:34 1013 29.91 842 24.86 8.2 46.7 89 6.4 43.5 0
06:35 1013 29.91 842 24.86 8.1 46.6 89 6.4 43.5 0
06:36 1013 29.91 842 24.86 8.1 46.6 90 6.5 43.7 0
06:37 1013 29.91 842 24.86 8.1 46.6 89 6.4 43.5 0
06:38 1013 29.91 842 24.86 8 46.5 89 6.3 43.4 0
06:39 1013 29.91 842 24.86 8 46.3 90 6.4 43.4 0
06:40 1012 29.88 842 24.86 8 46.4 89 6.3 43.3 0
06:41 1012 29.88 842 24.86 8 46.3 89 6.2 43.2 0
06:42 1013 29.91 842 24.86 7.9 46.1 90 6.3 43.3 0
06:43 1013 29.91 842 24.86 7.8 46 89 6.1 42.9 0
06:44 1013 29.91 842 24.86 7.7 45.8 89 5.9 42.7 0
06:45 1013 29.91 842 24.86 7.6 45.6 90 6 42.9 0
06:46 1013 29.91 842 24.86 7.5 45.6 91 6.2 43.1 0
06:47 1013 29.91 842 24.86 7.6 45.8 92 6.4 43.5 0
06:48 1013 29.91 842 24.86 7.8 46.1 92 6.5 43.8 0
06:49 1013 29.91 842 24.86 8 46.4 91 6.7 44 0
06:50 1013 29.91 842 24.86 8.2 46.7 90 6.7 44 0
06:51 1013 29.91 842 24.86 8.3 46.9 90 6.7 44 0
06:52 1013 29.91 842 24.86 8.3 46.9 89 6.7 44 0
06:53 1013 29.91 842 24.86 8.3 46.9 90 6.7 44 0
06:54 1013 29.91 842 24.86 8.3 46.9 90 6.8 44.2 0
06:55 1013 29.91 842 24.86 8.4 47.1 90 6.9 44.4 0
06:56 1013 29.91 842 24.86 8.5 47.4 90 6.9 44.5 0
06:57 1013 29.91 842 24.86 8.6 47.5 89 7 44.6 0
06:58 1013 29.91 842 24.86 8.7 47.7 89 7 44.6 0
06:59 1013 29.91 842 24.86 8.8 47.9 89 7.1 44.7 0
07:00 1013 29.91 842 24.86 8.9 48 89 7.1 44.8 0
07:01 1013 29.91 842 24.86 9 48.1 89 7.2 44.9 0
07:02 1013 29.91 842 24.86 9 48.2 88 7.2 45 0
07:03 1013 29.91 842 24.86 9.1 48.4 88 7.2 45 0
07:04 1013 29.91 842 24.86 9.2 48.6 88 7.3 45.1 0
07:05 1013 29.91 842 24.86 9.3 48.8 87 7.3 45.1 0
07:06 1013 29.91 842 24.86 9.4 49 86 7.3 45.1 0
07:07 1013 29.91 842 24.86 9.5 49.1 86 7.3 45.2 0
07:08 1013 29.91 842 24.86 9.5 49.2 86 7.4 45.2 0
07:09 1013 29.91 842 24.86 9.6 49.2 86 7.4 45.2 0
07:10 1013 29.91 842 24.86 9.5 49.2 86 7.4 45.2 0
07:11 1013 29.91 842 24.86 9.5 49.1 87 7.4 45.3 0
07:12 1013 29.91 842 24.86 9.5 49 87 7.4 45.3 0
07:13 1013 29.91 842 24.86 9.4 49 87 7.4 45.3 0
07:14 1013 29.91 842 24.86 9.4 49 87 7.4 45.2 0
07:15 1012 29.88 842 24.86 9.4 48.9 87 7.4 45.2 0
07:16 1012 29.88 842 24.86 9.4 48.9 87 7.4 45.2 0
07:17 1012 29.88 842 24.86 9.5 49 87 7.4 45.3 0
07:18 1012 29.88 842 24.86 9.5 49.1 87 7.4 45.3 0
07:19 1012 29.88 842 24.86 9.5 49.1 86 7.4 45.3 0
07:20 1012 29.88 842 24.86 9.5 49.2 86 7.4 45.3 0
07:21 1012 29.88 841 24.83 9.5 49.1 87 7.4 45.3 0
07:22 1012 29.88 841 24.83 9.6 49.2 86 7.4 45.3 0
07:23 1012 29.88 841 24.83 9.7 49.4 86 7.5 45.4 0
07:24 1012 29.88 841 24.83 9.8 49.6 85 7.4 45.4 0
07:25 1012 29.88 841 24.83 9.9 49.7 85 7.5 45.5 0
07:26 1012 29.88 841 24.83 10 50 85 7.5 45.6 0
07:27 1012 29.88 841 24.83 10.1 50.1 84 7.6 45.7 0
07:28 1012 29.88 841 24.83 10.1 50.3 84 7.6 45.7 0
07:29 1012 29.88 841 24.83 10.2 50.3 84 7.5 45.5 0
07:30 1012 29.88 841 24.83 10.3 50.5 84 7.6 45.7 0
07:31 1012 29.88 841 24.83 10.4 50.6 84 7.7 45.9 0
07:32 1012 29.88 841 24.83 10.4 50.8 83 7.7 45.9 0
07:33 1012 29.88 841 24.83 10.5 50.9 83 7.7 45.9 0
07:34 1012 29.88 841 24.83 10.6 51 83 7.8 46 0
07:35 1012 29.88 842 24.86 10.7 51.2 83 7.9 46.2 0
07:36 1012 29.88 842 24.86 10.7 51.2 83 7.9 46.3 0
07:37 1012 29.88 842 24.86 10.7 51.3 83 8.1 46.5 0
07:38 1012 29.88 842 24.86 10.8 51.4 83 8.1 46.5 0
07:39 1012 29.88 842 24.86 10.8 51.5 83 8 46.5 0
07:40 1012 29.88 842 24.86 10.9 51.6 82 8 46.4 0
07:41 1012 29.88 842 24.86 10.9 51.7 82 8.1 46.5 0
07:42 1012 29.88 842 24.86 11 51.8 82 8 46.4 0
07:43 1012 29.88 842 24.86 11.1 52 82 8.1 46.7 0
07:44 1012 29.88 842 24.86 11.2 52.2 82 8.2 46.8 0
07:45 1012 29.88 842 24.86 11.3 52.3 82 8.3 46.9 0
07:46 1012 29.88 842 24.86 11.4 52.5 81 8.3 47 0
07:47 1012 29.88 842 24.86 11.5 52.6 82 8.5 47.3 0
07:48 1012 29.88 842 24.86 11.5 52.8 81 8.5 47.3 0
07:49 1012 29.88 841 24.83 11.6 52.9 80 8.4 47.1 0
07:50 1012 29.88 841 24.83 11.6 52.8 80 8.3 46.9 0
07:51 1012 29.88 841 24.83 11.5 52.7 80 8.3 46.9 0
07:52 1012 29.88 842 24.86 11.4 52.5 81 8.3 46.9 0
07:53 1012 29.88 841 24.83 11.4 52.5 81 8.2 46.8 0
07:54 1012 29.88 842 24.86 11.4 52.5 80 8.1 46.6 0
07:55 1012 29.88 842 24.86 11.5 52.7 82 8.6 47.4 0
07:56 1012 29.88 842 24.86 11.6 52.8 82 8.6 47.5 0
07:57 1012 29.88 842 24.86 11.6 52.9 82 8.6 47.5 0
07:58 1012 29.88 841 24.83 11.8 53.2 79 8.4 47 0
07:59 1012 29.88 841 24.83 11.9 53.4 81 8.7 47.7 0
08:00 1012 29.88 841 24.83 12 53.6 80 8.7 47.6 0
08:01 1012 29.88 842 24.86 12.1 53.7 79 8.5 47.4 0
08:02 1012 29.88 842 24.86 12.2 54 79 8.7 47.7 0
08:03 1012 29.88 842 24.86 12.3 54.2 78 8.6 47.5 0
08:04 1012 29.88 842 24.86 12.5 54.4 78 8.8 47.8 0
08:05 1012 29.88 842 24.86 12.5 54.5 77 8.6 47.5 0
08:06 1012 29.88 842 24.86 12.5 54.6 77 8.7 47.6 0
08:07 1012 29.88 842 24.86 12.5 54.6 77 8.6 47.4 0
08:08 1012 29.88 842 24.86 12.6 54.6 74 8.2 46.7 0
08:09 1012 29.88 842 24.86 12.6 54.6 76 8.4 47.2 0
08:10 1012 29.88 842 24.86 12.7 54.8 77 8.7 47.7 0
08:11 1012 29.88 842 24.86 12.7 54.8 75 8.4 47.1 0
08:12 1012 29.88 842 24.86 12.8 55.1 76 8.6 47.6 0
08:13 1012 29.88 842 24.86 12.9 55.3 74 8.4 47.1 0
08:14 1012 29.88 842 24.86 13 55.5 77 9.1 48.4 0
08:15 1012 29.88 842 24.86 13.2 55.7 74 8.6 47.5 0
08:16 1012 29.88 842 24.86 13.2 55.7 73 8.6 47.4 0
08:17 1012 29.88 842 24.86 13.1 55.6 76 8.9 48.1 0
08:18 1012 29.88 842 24.86 13.1 55.5 72 8.2 46.8 0
08:19 1012 29.88 842 24.86 13 55.4 74 8.5 47.2 0
08:20 1012 29.88 841 24.83 13 55.4 72 8.1 46.6 0
08:21 1012 29.88 842 24.86 13.1 55.5 73 8.4 47.1 0
08:22 1012 29.88 841 24.83 13.1 55.6 71 8 46.4 0
08:23 1012 29.88 842 24.86 13.1 55.6 73 8.5 47.3 0
08:24 1012 29.88 841 24.83 13.2 55.8 75 8.9 48 0
08:25 1012 29.88 842 24.86 13.3 55.9 71 8.2 46.7 0
08:26 1012 29.88 841 24.83 13.3 56 72 8.4 47 0
08:27 1012 29.88 841 24.83 13.4 56.1 74 8.8 47.9 0
08:28 1012 29.88 841 24.83 13.6 56.4 74 9.1 48.3 0
08:29 1012 29.88 841 24.83 13.7 56.7 71 8.7 47.6 0
08:30 1012 29.88 841 24.83 13.8 56.9 69 8.3 46.9 0
08:31 1012 29.88 841 24.83 14 57.2 73 9.2 48.5 0
08:32 1012 29.88 842 24.86 14.1 57.3 68 8.2 46.7 0
08:33 1012 29.88 842 24.86 14 57.3 69 8.6 47.5 0
08:34 1012 29.88 842 24.86 14.2 57.5 73 9.5 49 0
08:35 1012 29.88 842 24.86 14.4 57.8 70 9 48.1 0
08:36 1012 29.88 842 24.86 14.5 58.1 68 8.6 47.6 0
08:37 1012 29.88 842 24.86 14.6 58.3 65 8.3 46.9 0
08:38 1012 29.88 842 24.86 14.9 58.8 67 9 48.1 0
08:39 1012 29.88 842 24.86 15.2 59.3 64 8.5 47.3 0
08:40 1012 29.88 842 24.86 15.4 59.7 66 9.2 48.6 0
08:41 1012 29.88 842 24.86 15.6 60 62 8.3 46.9 0
08:42 1012 29.88 842 24.86 15.7 60.3 63 8.8 47.8 0
08:43 1012 29.88 842 24.86 15.8 60.5 62 8.7 47.6 0
08:44 1012 29.88 842 24.86 15.8 60.5 64 9.2 48.6 0
08:45 1012 29.88 842 24.86 15.8 60.5 64 9.1 48.4 0
08:46 1012 29.88 842 24.86 15.9 60.6 65 9.4 49 0
08:47 1012 29.88 842 24.86 15.9 60.5 65 9.4 48.9 0
08:48 1012 29.88 842 24.86 15.8 60.5 64 9 48.3 0
08:49 1012 29.88 842 24.86 16 60.8 64 9.4 48.8 0
08:50 1012 29.88 842 24.86 16.1 60.9 64 9.4 48.9 0
08:51 1012 29.88 842 24.86 16 60.9 64 9.3 48.7 0
08:52 1012 29.88 842 24.86 15.9 60.6 66 9.6 49.2 0
08:53 1012 29.88 842 24.86 15.6 60.1 65 9.1 48.5 0
08:54 1012 29.88 842 24.86 15.3 59.5 67 9.2 48.5 0
08:55 1012 29.88 842 24.86 15.2 59.4 68 9.5 49.1 0
08:56 1012 29.88 842 24.86 15.4 59.7 70 10.1 50.2 0
08:57 1012 29.88 842 24.86 15.6 60 69 10 50.1 0
08:58 1012 29.88 841 24.83 15.7 60.3 68 9.9 49.8 0
08:59 1012 29.88 841 24.83 15.7 60.3 63 8.8 47.8 0
09:00 1012 29.88 841 24.83 15.6 60.1 65 9 48.3 0
09:01 1012 29.88 841 24.83 15.5 59.9 64 8.9 48 0
09:02 1012 29.88 841 24.83 15.3 59.6 70 9.9 49.8 0
09:03 1012 29.88 841 24.83 15.3 59.6 72 10.3 50.5 0
09:04 1012 29.88 842 24.86 15.4 59.8 67 9.4 48.9 0
09:05 1012 29.88 842 24.86 15.5 59.9 69 9.9 49.9 0
09:06 1012 29.88 842 24.86 15.5 59.9 65 9 48.3 0
09:07 1012 29.88 842 24.86 15.3 59.6 69 9.8 49.6 0
09:08 1012 29.88 841 24.83 15.1 59.3 72 10.2 50.4 0
09:09 1012 29.88 841 24.83 15.1 59.1 68 9.3 48.7 0
09:10 1012 29.88 842 24.86 15.2 59.3 68 9.4 48.9 0
09:11 1012 29.88 842 24.86 15.3 59.5 64 8.7 47.6 0
09:12 1012 29.88 842 24.86 15.3 59.6 68 9.5 49.1 0
09:13 1012 29.88 841 24.83 15.5 59.9 67 9.4 49 0
09:14 1012 29.88 841 24.83 15.4 59.7 64 8.7 47.6 0
09:15 1012 29.88 841 24.83 15.2 59.3 69 9.5 49.1 0
09:16 1012 29.88 841 24.83 15.1 59.2 65 8.6 47.5 0
09:17 1012 29.88 841 24.83 15.1 59.1 65 8.7 47.6 0
09:18 1012 29.88 841 24.83 15.1 59.1 68 9.3 48.7 0
09:19 1013 29.91 842 24.86 15 59 69 9.4 48.9 0
09:20 1012 29.88 841 24.83 15 59 67 8.9 48.1 0
09:21 1012 29.88 841 24.83 15.1 59.1 67 9 48.3 0
09:22 1012 29.88 841 24.83 15.1 59.2 69 9.5 49.1 0
09:23 1012 29.88 841 24.83 15 59 66 8.9 48 0
09:24 1012 29.88 841 24.83 14.9 58.7 69 9.3 48.7 0
09:25 1012 29.88 841 24.83 14.8 58.7 70 9.5 49 0
09:26 1012 29.88 841 24.83 14.7 58.5 69 9.1 48.4 0
09:27 1012 29.88 841 24.83 14.7 58.4 69 9 48.2 0
09:28 1012 29.88 841 24.83 14.5 58.1 72 9.6 49.3 0
09:29 1012 29.88 841 24.83 14.4 57.9 70 9 48.3 0
09:30 1012 29.88 841 24.83 14.4 57.8 73 9.6 49.2 0
09:31 1012 29.88 841 24.83 14.4 57.9 74 9.9 49.8 0
09:32 1012 29.88 841 24.83 14.5 58.1 73 9.8 49.7 0
09:33 1012 29.88 841 24.83 14.5 58.2 70 9.3 48.7 0
09:34 1012 29.88 841 24.83 14.6 58.2 73 9.8 49.6 0
09:35 1012 29.88 841 24.83 14.7 58.4 70 9.2 48.6 0
09:36 1012 29.88 841 24.83 14.6 58.3 70 9.4 48.8 0
09:37 1012 29.88 841 24.83 14.6 58.3 71 9.4 48.9 0
09:38 1012 29.88 841 24.83 14.7 58.4 76 10.5 51 0
09:39 1012 29.88 841 24.83 14.8 58.7 75 10.4 50.7 0
09:40 1012 29.88 841 24.83 15 58.9 73 10.2 50.4 0
09:41 1012 29.88 841 24.83 15 59.1 72 10.1 50.2 0
09:42 1012 29.88 841 24.83 15 58.9 70 9.5 49.1 0
09:43 1012 29.88 841 24.83 14.8 58.7 70 9.4 48.9 0
09:44 1012 29.88 841 24.83 14.7 58.4 68 8.9 48 0
09:45 1012 29.88 841 24.83 14.5 58.1 70 9.1 48.4 0
09:46 1012 29.88 841 24.83 14.4 58 70 9 48.3 0
09:47 1012 29.88 841 24.83 14.4 57.9 68 8.7 47.7 0
09:48 1012 29.88 841 24.83 14.4 57.9 72 9.4 48.9 0
09:49 1012 29.88 841 24.83 14.4 57.9 73 9.6 49.2 0
09:50 1012 29.88 841 24.83 14.4 58 74 9.9 49.8 0
09:51 1012 29.88 841 24.83 14.4 57.9 73 9.7 49.5 0
09:52 1012 29.88 841 24.83 14.4 57.8 74 9.7 49.5 0
09:53 1012 29.88 841 24.83 14.3 57.8 70 8.9 48 0
09:54 1012 29.88 841 24.83 14.3 57.8 71 9.2 48.6 0
09:55 1012 29.88 841 24.83 14.3 57.8 73 9.6 49.3 0
09:56 1012 29.88 841 24.83 14.4 58 71 9.2 48.5 0
09:57 1012 29.88 841 24.83 14.5 58 71 9.2 48.6 0
09:58 1012 29.88 841 24.83 14.5 58.2 68 8.8 47.8 0
09:59 1012 29.88 841 24.83 14.5 58.1 72 9.6 49.2 0
10:00 1012 29.88 841 24.83 14.6 58.2 69 9 48.3 0
10:01 1012 29.88 841 24.83 14.6 58.3 72 9.7 49.4 0
10:02 1012 29.88 841 24.83 14.6 58.3 71 9.4 48.9 0
10:03 1012 29.88 841 24.83 14.6 58.3 70 9.3 48.7 0
10:04 1012 29.88 841 24.83 14.6 58.3 73 9.9 49.8 0
10:05 1012 29.88 841 24.83 14.6 58.3 71 9.5 49.1 0
10:06 1012 29.88 841 24.83 14.6 58.3 69 9 48.2 0
10:07 1012 29.88 841 24.83 14.6 58.3 70 9.2 48.5 0
10:08 1012 29.88 841 24.83 14.6 58.3 70 9.2 48.6 0
10:09 1012 29.88 841 24.83 14.6 58.3 70 9.4 48.8 0
10:10 1012 29.88 841 24.83 14.7 58.4 69 9 48.2 0
10:11 1012 29.88 841 24.83 14.7 58.4 69 9.1 48.5 0
10:12 1012 29.88 841 24.83 14.8 58.6 71 9.5 49.1 0
10:13 1012 29.88 841 24.83 14.8 58.6 69 9.2 48.6 0
10:14 1012 29.88 841 24.83 14.8 58.7 72 9.8 49.6 0
10:15 1012 29.88 841 24.83 14.9 58.7 67 8.9 48.1 0
10:16 1012 29.88 841 24.83 14.9 58.7 72 9.9 49.9 0
10:17 1012 29.88 841 24.83 14.9 58.8 71 9.7 49.5 0
10:18 1012 29.88 841 24.83 14.9 58.8 70 9.5 49.2 0
10:19 1012 29.88 841 24.83 14.9 58.9 72 9.9 49.8 0
10:20 1012 29.88 841 24.83 15 59 71 9.7 49.5 0
10:21 1012 29.88 841 24.83 15 59 69 9.4 48.9 0
10:22 1012 29.88 841 24.83 15 59 68 9.3 48.7 0
10:23 1012 29.88 841 24.83 15.1 59.2 67 9.1 48.3 0
10:24 1012 29.88 841 24.83 15.1 59.2 73 10.3 50.5 0
10:25 1012 29.88 841 24.83 15.2 59.4 69 9.6 49.3 0
10:26 1012 29.88 841 24.83 15.3 59.5 69 9.8 49.6 0
10:27 1012 29.88 841 24.83 15.3 59.5 66 9 48.1 0
10:28 1012 29.88 841 24.83 15.3 59.5 67 9.2 48.5 0
10:29 1012 29.88 841 24.83 15.3 59.5 68 9.5 49.1 0
10:30 1012 29.88 841 24.83 15.2 59.4 67 9.1 48.4 0
10:31 1012 29.88 841 24.83 15.2 59.4 67 9.3 48.7 0
10:32 1012 29.88 841 24.83 15.2 59.3 65 8.8 47.9 0
10:33 1012 29.88 841 24.83 15.2 59.3 70 9.9 49.8 0
10:34 1012 29.88 841 24.83 15.2 59.3 70 9.8 49.7 0
10:35 1012 29.88 841 24.83 15.2 59.4 71 9.9 49.9 0
10:36 1012 29.88 841 24.83 15.2 59.4 68 9.4 48.8 0
10:37 1012 29.88 841 24.83 15.3 59.5 67 9.3 48.7 0
10:38 1012 29.88 841 24.83 15.3 59.5 71 10.1 50.2 0
10:39 1012 29.88 841 24.83 15.3 59.5 72 10.3 50.5 0
10:40 1012 29.88 841 24.83 15.3 59.6 71 10.2 50.4 0
10:41 1012 29.88 841 24.83 15.4 59.7 72 10.5 50.9 0
10:42 1012 29.88 841 24.83 15.5 59.9 75 11 51.8 0
10:43 1012 29.88 841 24.83 15.7 60.2 68 9.7 49.5 0
10:44 1012 29.88 841 24.83 15.7 60.3 70 10.3 50.5 0
10:45 1012 29.88 841 24.83 15.9 60.5 68 10.1 50.2 0
10:46 1012 29.88 841 24.83 15.9 60.6 66 9.6 49.3 0
10:47 1012 29.88 841 24.83 15.9 60.6 68 10.1 50.2 0
10:48 1012 29.88 841 24.83 16 60.7 71 10.7 51.2 0
10:49 1012 29.88 841 24.83 16.1 60.9 66 9.9 49.8 0
10:50 1012 29.88 841 24.83 16 60.8 65 9.6 49.3 0
10:51 1012 29.88 841 24.83 16 60.7 65 9.5 49.1 0
10:52 1012 29.88 841 24.83 16 60.7 65 9.4 49 0
10:53 1012 29.88 841 24.83 16.1 60.9 63 9.1 48.3 0
10:54 1012 29.88 841 24.83 16.1 61 63 9 48.3 0
10:55 1012 29.88 841 24.83 16.3 61.3 62 9.1 48.3 0
10:56 1012 29.88 841 24.83 16.4 61.6 71 11.1 52.1 0
10:57 1012 29.88 841 24.83 16.6 62 61 9.2 48.5 0
10:58 1012 29.88 841 24.83 16.8 62.2 61 9.2 48.6 0
10:59 1012 29.88 841 24.83 16.9 62.4 63 9.8 49.7 0
11:00 1012 29.88 841 24.83 17 62.6 63 10.1 50.2 0
11:01 1012 29.88 841 24.83 17 62.6 65 10.3 50.6 0
11:02 1012 29.88 841 24.83 17 62.6 60 9.2 48.6 0
11:03 1012 29.88 841 24.83 17 62.5 64 10.2 50.4 0
11:04 1012 29.88 841 24.83 17 62.5 60 9.3 48.7 0
11:05 1011 29.85 841 24.83 17 62.6 62 9.9 49.8 0
11:06 1011 29.85 841 24.83 17 62.6 65 10.4 50.8 0
11:07 1012 29.88 841 24.83 17 62.5 61 9.6 49.2 0
11:08 1012 29.88 841 24.83 16.9 62.4 61 9.5 49 0
11:09 1012 29.88 841 24.83 17 62.5 62 9.7 49.4 0
11:10 1012 29.88 841 24.83 17.2 62.9 64 10.4 50.7 0
11:11 1012 29.88 841 24.83 17.3 63.2 60 9.7 49.4 0
11:12 1012 29.88 841 24.83 17.5 63.4 58 9.1 48.4 0
11:13 1012 29.88 841 24.83 17.5 63.6 57 9.1 48.5 0
11:14 1012 29.88 841 24.83 17.8 64.1 59 9.8 49.6 0
11:15 1011 29.85 841 24.83 18 64.4 62 10.8 51.4 0
11:16 1011 29.85 841 24.83 18.1 64.6 61 10.7 51.2 0
11:17 1011 29.85 841 24.83 18.2 64.7 60 10.5 50.9 0
11:18 1011 29.85 841 24.83 18.2 64.7 58 9.8 49.6 0
11:19 1011 29.85 841 24.83 18.1 64.6 62 10.9 51.6 0
11:20 1011 29.85 841 24.83 18.3 65 54 9 48.1 0
11:21 1011 29.85 841 24.83 18.6 65.5 56 9.8 49.7 0
11:22 1011 29.85 841 24.83 18.7 65.6 58 10.3 50.5 0
11:23 1011 29.85 841 24.83 18.7 65.7 57 10.1 50.2 0
11:24 1011 29.85 841 24.83 18.8 65.9 60 11.1 51.9 0
11:25 1011 29.85 841 24.83 19 66.1 57 10.5 50.8 0
11:26 1011 29.85 841 24.83 19 66.2 61 11.4 52.5 0
11:27 1011 29.85 840 24.81 18.8 65.9 63 11.8 53.2 0
11:28 1011 29.85 840 24.81 18.6 65.6 63 11.6 52.9 0
11:29 1011 29.85 841 24.83 18.6 65.4 57 10.1 50.1 0
11:30 1011 29.85 840 24.81 18.5 65.3 61 11 51.8 0
11:31 1011 29.85 840 24.81 18.5 65.4 62 11.2 52.2 0
11:32 1011 29.85 840 24.81 18.5 65.3 57 9.9 49.8 0
11:33 1011 29.85 840 24.81 18.5 65.2 56 9.6 49.2 0
11:34 1011 29.85 840 24.81 18.4 65.2 57 9.9 49.8 0
11:35 1011 29.85 840 24.81 18.5 65.2 58 10.1 50.1 0
11:36 1011 29.85 840 24.81 18.4 65.2 56 9.7 49.4 0
11:37 1011 29.85 840 24.81 18.4 65.1 64 11.6 53 0
11:38 1011 29.85 840 24.81 18.5 65.2 59 10.3 50.5 0
11:39 1011 29.85 840 24.81 18.6 65.5 61 11 51.7 0
11:40 1011 29.85 840 24.81 18.9 66 56 10.1 50.2 0
11:41 1011 29.85 840 24.81 19.2 66.6 56 10.3 50.5 0
11:42 1011 29.85 840 24.81 19.3 66.8 54 9.9 49.8 0
11:43 1011 29.85 840 24.81 19.2 66.6 55 10.1 50.3 0
11:44 1011 29.85 840 24.81 19.1 66.4 53 9.5 49.1 0
11:45 1011 29.85 840 24.81 19.1 66.3 50 8.6 47.5 0
11:46 1011 29.85 840 24.81 19.1 66.3 53 9.3 48.7 0
11:47 1011 29.85 840 24.81 19.2 66.5 55 10 50 0
11:48 1011 29.85 840 24.81 19.1 66.5 54 9.6 49.3 0
11:49 1011 29.85 840 24.81 19.2 66.5 53 9.5 49.1 0
11:50 1011 29.85 840 24.81 19.2 66.6 54 9.9 49.9 0
11:51 1011 29.85 840 24.81 19.2 66.6 59 11.2 52.2 0
11:52 1011 29.85 840 24.81 19.2 66.5 52 9.1 48.4 0
11:53 1011 29.85 840 24.81 19.1 66.4 49 8.4 47 0
11:54 1011 29.85 840 24.81 19.2 66.5 57 10.5 51 0
11:55 1011 29.85 840 24.81 19.2 66.6 57 10.7 51.2 0
11:56 1011 29.85 840 24.81 19.2 66.6 58 11 51.8 0
11:57 1011 29.85 840 24.81 19.2 66.5 56 10.2 50.3 0
11:58 1011 29.85 840 24.81 19 66.3 58 10.7 51.2 0
11:59 1011 29.85 840 24.81 19 66.2 55 9.8 49.7 0
12:00 1011 29.85 840 24.81 18.9 66.1 57 10.3 50.6 0
12:01 1011 29.85 840 24.81 18.9 66 55 9.9 49.7 0
12:02 1011 29.85 840 24.81 19 66.2 60 11.1 52.1 0
12:03 1011 29.85 840 24.81 19.2 66.5 56 10.2 50.4 0
12:04 1011 29.85 840 24.81 19.2 66.6 55 10.2 50.4 0
12:05 1011 29.85 840 24.81 19.3 66.7 60 11.5 52.6 0
12:06 1011 29.85 840 24.81 19.3 66.8 59 11.2 52.2 0
12:07 1011 29.85 840 24.81 19.4 66.9 56 10.4 50.7 0
12:08 1011 29.85 840 24.81 19.3 66.8 61 11.8 53.2 0
12:09 1011 29.85 840 24.81 19.3 66.7 61 11.6 52.9 0
12:10 1011 29.85 840 24.81 19.3 66.7 54 9.9 49.8 0
12:11 1011 29.85 840 24.81 19.2 66.6 55 10 50.1 0
12:12 1011 29.85 840 24.81 19.1 66.4 59 11.2 52.1 0
12:13 1011 29.85 840 24.81 19.2 66.6 58 10.8 51.4 0
12:14 1011 29.85 840 24.81 19.3 66.8 51 9.1 48.3 0
12:15 1011 29.85 840 24.81 19.2 66.6 59 11.1 51.9 0
12:16 1011 29.85 840 24.81 19.1 66.3 57 10.4 50.8 0
12:17 1011 29.85 840 24.81 18.9 66 58 10.6 51 0
12:18 1011 29.85 840 24.81 18.8 65.8 57 10.1 50.2 0
12:19 1011 29.85 840 24.81 18.7 65.7 59 10.7 51.2 0
12:20 1011 29.85 840 24.81 18.7 65.7 63 11.5 52.8 0
12:21 1011 29.85 840 24.81 18.8 65.8 59 10.8 51.4 0
12:22 1011 29.85 840 24.81 18.8 65.8 59 10.8 51.4 0
12:23 1011 29.85 840 24.81 18.7 65.7 60 11 51.8 0
12:24 1011 29.85 840 24.81 18.6 65.5 60 10.8 51.5 0
12:25 1011 29.85 840 24.81 18.5 65.4 60 10.7 51.3 0
12:26 1011 29.85 840 24.81 18.5 65.2 64 11.5 52.7 0
12:27 1011 29.85 840 24.81 18.5 65.3 64 11.6 52.8 0
12:28 1010 29.83 840 24.81 18.6 65.5 63 11.5 52.8 0
12:29 1010 29.83 840 24.81 18.8 65.8 63 11.8 53.2 0
12:30 1010 29.83 840 24.81 19 66.1 61 11.3 52.3 0
12:31 1010 29.83 840 24.81 19.2 66.5 58 10.9 51.5 0
12:32 1010 29.83 840 24.81 19.2 66.6 55 10.1 50.1 0
12:33 1010 29.83 840 24.81 19.2 66.6 56 10.5 50.9 0
12:34 1010 29.83 840 24.81 19.2 66.5 52 9.3 48.7 0
12:35 1010 29.83 840 24.81 19.1 66.4 54 9.8 49.6 0
12:36 1010 29.83 840 24.81 19 66.2 57 10.4 50.8 0
12:37 1010 29.83 840 24.81 18.9 65.9 58 10.4 50.7 0
12:38 1010 29.83 840 24.81 18.8 65.8 60 11.1 51.9 0
12:39 1010 29.83 840 24.81 18.8 65.8 60 11 51.7 0
12:40 1010 29.83 840 24.81 18.8 65.9 56 10.1 50.1 0
12:41 1010 29.83 840 24.81 18.8 65.9 56 9.8 49.7 0
12:42 1010 29.83 840 24.81 18.8 65.8 61 11.2 52.2 0
12:43 1010 29.83 840 24.81 18.8 65.9 62 11.5 52.7 0
12:44 1010 29.83 839 24.78 18.9 65.9 61 11.3 52.4 0
12:45 1010 29.83 839 24.78 18.9 66 54 9.5 49.2 0
12:46 1010 29.83 839 24.78 18.9 66 56 10 49.9 0
12:47 1010 29.83 839 24.78 18.9 65.9 55 9.7 49.4 0
12:48 1010 29.83 839 24.78 19 66.2 60 11 51.9 0
12:49 1010 29.83 839 24.78 19.1 66.4 52 9.1 48.4 0
12:50 1010 29.83 839 24.78 19.2 66.5 55 10.1 50.2 0
12:51 1010 29.83 839 24.78 19.3 66.7 58 10.9 51.6 0
12:52 1010 29.83 839 24.78 19.3 66.8 60 11.4 52.6 0
12:53 1010 29.83 839 24.78 19.5 67 52 9.4 48.8 0
12:54 1010 29.83 839 24.78 19.4 66.9 55 10.3 50.6 0
12:55 1010 29.83 839 24.78 19.3 66.7 56 10.4 50.8 0
12:56 1010 29.83 839 24.78 19.2 66.6 57 10.7 51.3 0
12:57 1010 29.83 839 24.78 19.2 66.6 57 10.7 51.3 0
12:58 1010 29.83 839 24.78 19.3 66.8 54 9.9 49.9 0
12:59 1010 29.83 839 24.78 19.5 67 56 10.5 50.9 0
13:00 1010 29.83 839 24.78 19.7 67.4 52 9.6 49.2 0
13:01 1010 29.83 839 24.78 19.7 67.5 50 9.2 48.5 0
13:02 1010 29.83 839 24.78 19.8 67.6 53 9.9 49.8 0
13:03 1010 29.83 839 24.78 19.8 67.6 50 9.3 48.7 0
13:04 1010 29.83 839 24.78 19.8 67.6 59 11.7 53.1 0
13:05 1010 29.83 839 24.78 19.9 67.7 55 10.6 51.1 0
13:06 1010 29.83 839 24.78 20.1 68.1 52 9.9 49.9 0
13:07 1010 29.83 839 24.78 20.2 68.4 47 8.8 47.9 0
13:08 1010 29.83 839 24.78 20.4 68.7 48 9.2 48.6 0
13:09 1010 29.83 839 24.78 20.5 68.9 53 10.7 51.2 0
13:10 1010 29.83 839 24.78 20.7 69.2 47 9.2 48.5 0
13:11 1010 29.83 839 24.78 20.8 69.4 54 11.3 52.4 0
13:12 1010 29.83 839 24.78 20.8 69.5 50 10.2 50.4 0
13:13 1010 29.83 839 24.78 20.7 69.2 44 8 46.4 0
13:14 1010 29.83 839 24.78 20.6 69.1 46 8.7 47.6 0
13:15 1010 29.83 839 24.78 20.6 69.1 48 9.4 48.8 0
13:16 1010 29.83 839 24.78 20.5 69 52 10.4 50.7 0
13:17 1010 29.83 839 24.78 20.3 68.5 47 8.6 47.5 0
13:18 1010 29.83 839 24.78 20.1 68.2 47 8.5 47.3 0
13:19 1010 29.83 839 24.78 20 68 49 9.1 48.4 0
13:20 1010 29.83 839 24.78 19.9 67.8 46 8 46.3 0
13:21 1010 29.83 839 24.78 19.8 67.7 46 7.9 46.2 0
13:22 1010 29.83 839 24.78 19.9 67.7 46 8 46.4 0
13:23 1010 29.83 839 24.78 19.9 67.8 48 8.6 47.5 0
13:24 1010 29.83 839 24.78 20 67.9 48 8.8 47.8 0
13:25 1010 29.83 839 24.78 19.9 67.9 50 9.5 49.1 0
13:26 1010 29.83 839 24.78 19.9 67.9 54 10.4 50.7 0
13:27 1010 29.83 839 24.78 20 68.1 59 12 53.6 0
13:28 1010 29.83 839 24.78 20.2 68.4 55 11 51.9 0
13:29 1010 29.83 839 24.78 20.3 68.5 51 9.9 49.8 0
13:30 1010 29.83 839 24.78 20.2 68.3 48 9 48.1 0
13:31 1010 29.83 839 24.78 20 68.1 49 9.1 48.3 0
13:32 1010 29.83 839 24.78 20 68 48 8.8 47.8 0
13:33 1010 29.83 839 24.78 20 67.9 52 9.9 49.9 0
13:34 1010 29.83 839 24.78 19.9 67.9 50 9.3 48.7 0
13:35 1010 29.83 839 24.78 19.9 67.9 57 11.3 52.4 0
13:36 1010 29.83 839 24.78 19.8 67.6 51 9.6 49.4 0
13:37 1010 29.83 839 24.78 19.8 67.6 55 10.5 50.9 0
13:38 1010 29.83 839 24.78 19.6 67.4 54 10.1 50.1 0
13:39 1010 29.83 839 24.78 19.5 67.2 55 10.4 50.6 0
13:40 1010 29.83 839 24.78 19.6 67.2 60 11.8 53.2 0
13:41 1010 29.83 839 24.78 19.6 67.3 57 10.8 51.5 0
13:42 1010 29.83 839 24.78 19.7 67.4 49 8.8 47.8 0
13:43 1010 29.83 839 24.78 19.7 67.5 47 8.4 47 0
13:44 1010 29.83 839 24.78 19.8 67.6 56 10.8 51.4 0
13:45 1010 29.83 839 24.78 19.8 67.7 47 8.4 47.1 0
13:46 1010 29.83 839 24.78 19.9 67.8 48 8.6 47.6 0
13:47 1010 29.83 839 24.78 20 67.9 52 10 50 0
13:48 1010 29.83 839 24.78 20.1 68.1 52 10.2 50.3 0
13:49 1010 29.83 839 24.78 20.1 68.1 50 9.3 48.8 0
13:50 1010 29.83 839 24.78 20.1 68.2 54 10.6 51 0
13:51 1010 29.83 839 24.78 20.1 68.1 49 9 48.3 0
13:52 1010 29.83 839 24.78 20.1 68.1 51 9.7 49.5 0
13:53 1010 29.83 839 24.78 20.1 68.2 52 10.2 50.3 0
13:54 1010 29.83 839 24.78 20.2 68.4 53 10.6 51.1 0
13:55 1010 29.83 839 24.78 20.3 68.5 45 8.2 46.8 0
13:56 1010 29.83 839 24.78 20.4 68.7 51 10.2 50.3 0
13:57 1010 29.83 839 24.78 20.3 68.5 52 10.2 50.3 0
13:58 1010 29.83 839 24.78 20.3 68.5 54 10.7 51.3 0
13:59 1010 29.83 839 24.78 20.3 68.5 48 9.1 48.4 0
14:00 1010 29.83 839 24.78 20.3 68.6 50 9.6 49.3 0
14:01 1010 29.83 839 24.78 20.3 68.6 52 10.3 50.5 0
14:02 1010 29.83 839 24.78 20.4 68.6 51 9.9 49.9 0
14:03 1010 29.83 839 24.78 20.2 68.4 51 10 50 0
14:04 1010 29.83 839 24.78 20.1 68.2 51 9.9 49.8 0
14:05 1010 29.83 839 24.78 20.1 68.1 50 9.4 48.9 0
14:06 1010 29.83 839 24.78 19.9 67.8 51 9.7 49.4 0
14:07 1010 29.83 839 24.78 19.8 67.7 55 10.7 51.3 0
14:08 1010 29.83 839 24.78 19.8 67.6 57 11.1 52 0
14:09 1010 29.83 839 24.78 19.6 67.4 59 11.5 52.7 0
14:10 1010 29.83 839 24.78 19.7 67.4 64 12.7 54.9 0
14:11 1010 29.83 839 24.78 19.7 67.4 56 10.8 51.5 0
14:12 1010 29.83 839 24.78 19.7 67.5 58 11.3 52.3 0
14:13 1010 29.83 839 24.78 19.7 67.5 55 10.7 51.2 0
14:14 1010 29.83 839 24.78 19.7 67.4 55 10.4 50.7 0
14:15 1010 29.83 839 24.78 19.7 67.4 56 10.7 51.2 0
14:16 1010 29.83 839 24.78 19.9 67.7 57 11.1 52 0
14:17 1010 29.83 839 24.78 19.9 67.8 60 11.9 53.4 0
14:18 1010 29.83 839 24.78 20 67.9 57 11.2 52.2 0
14:19 1010 29.83 839 24.78 20.1 68.1 63 13 55.4 0
14:20 1010 29.83 839 24.78 20.2 68.3 54 10.6 51.1 0
14:21 1010 29.83 839 24.78 20.3 68.5 52 10.3 50.5 0
14:22 1010 29.83 839 24.78 20.3 68.6 53 10.4 50.8 0
14:23 1010 29.83 839 24.78 20.3 68.5 52 10.1 50.2 0
14:24 1009 29.8 839 24.78 20.3 68.6 49 9.4 48.9 0
14:25 1009 29.8 839 24.78 20.2 68.4 52 10.2 50.4 0
14:26 1010 29.83 839 24.78 20.1 68.2 55 10.9 51.7 0
14:27 1010 29.83 839 24.78 20 68.1 56 11 51.8 0
14:28 1010 29.83 839 24.78 19.9 67.9 51 9.8 49.6 0
14:29 1009 29.8 839 24.78 19.9 67.8 53 10 50.1 0
14:30 1009 29.8 839 24.78 19.9 67.8 54 10.5 50.9 0
14:31 1009 29.8 839 24.78 19.9 67.8 54 10.4 50.7 0
14:32 1009 29.8 839 24.78 19.8 67.7 58 11.4 52.5 0
14:33 1009 29.8 839 24.78 19.9 67.7 57 11.3 52.3 0
14:34 1009 29.8 839 24.78 19.8 67.7 58 11.4 52.5 0
14:35 1009 29.8 839 24.78 19.8 67.7 57 11.2 52.1 0
14:36 1009 29.8 839 24.78 19.9 67.7 56 11 51.7 0
14:37 1009 29.8 839 24.78 19.9 67.8 56 11 51.8 0
14:38 1009 29.8 839 24.78 20 68.1 60 12.2 54 0
14:39 1009 29.8 839 24.78 20.1 68.1 58 11.6 52.9 0
14:40 1009 29.8 839 24.78 20.1 68.2 55 10.9 51.5 0
14:41 1009 29.8 839 24.78 20.1 68.1 54 10.5 50.9 0
14:42 1009 29.8 839 24.78 20 68.1 57 11.4 52.5 0
14:43 1009 29.8 839 24.78 20 68 54 10.5 51 0
14:44 1009 29.8 839 24.78 20 68 55 10.8 51.4 0
14:45 1009 29.8 839 24.78 20 68 57 11.2 52.2 0
14:46 1009 29.8 839 24.78 20 68 57 11.2 52.2 0
14:47 1009 29.8 839 24.78 20 68.1 57 11.3 52.3 0
14:48 1009 29.8 839 24.78 20.1 68.1 51 9.9 49.7 0
14:49 1009 29.8 838 24.75 20.1 68.1 48 8.8 47.8 0
14:50 1009 29.8 838 24.75 20 68 57 11.4 52.5 0
14:51 1009 29.8 839 24.78 20 68 57 11.3 52.3 0
14:52 1009 29.8 839 24.78 19.9 67.9 53 10.3 50.6 0
14:53 1009 29.8 839 24.78 19.9 67.8 57 11.3 52.3 0
14:54 1009 29.8 839 24.78 19.8 67.6 59 11.6 52.9 0
14:55 1009 29.8 839 24.78 19.6 67.4 61 12 53.6 0
14:56 1009 29.8 839 24.78 19.5 67.1 59 11.5 52.6 0
14:57 1009 29.8 839 24.78 19.5 67.1 61 11.8 53.2 0
14:58 1009 29.8 839 24.78 19.5 67.1 63 12.4 54.3 0
14:59 1009 29.8 839 24.78 19.5 67.1 59 11.4 52.5 0
15:00 1009 29.8 839 24.78 19.5 67.1 61 12 53.6 0
15:01 1009 29.8 839 24.78 19.5 67.1 65 12.8 55 0
15:02 1009 29.8 838 24.75 19.6 67.4 61 12 53.5 0
15:03 1009 29.8 838 24.75 19.8 67.6 60 11.9 53.5 0
15:04 1009 29.8 838 24.75 19.7 67.5 59 11.7 53 0
15:05 1009 29.8 838 24.75 19.7 67.4 59 11.6 52.8 0
15:06 1009 29.8 838 24.75 19.5 67.1 61 12 53.5 0
15:07 1009 29.8 838 24.75 19.4 66.9 61 11.8 53.2 0
15:08 1009 29.8 839 24.78 19.3 66.7 61 11.6 53 0
15:09 1009 29.8 839 24.78 19.1 66.4 61 11.5 52.6 0
15:10 1009 29.8 839 24.78 19 66.2 63 11.8 53.3 0
15:11 1009 29.8 839 24.78 18.9 66 62 11.6 52.9 0
15:12 1009 29.8 839 24.78 18.8 65.8 62 11.3 52.4 0
15:13 1009 29.8 839 24.78 18.8 65.9 63 11.8 53.2 0
15:14 1009 29.8 839 24.78 18.9 66 67 12.8 55.1 0
15:15 1009 29.8 838 24.75 19 66.1 67 12.8 55.1 0
15:16 1009 29.8 838 24.75 19 66.2 67 12.8 55 0
15:17 1009 29.8 838 24.75 18.9 66.1 70 13.5 56.2 0
15:18 1009 29.8 838 24.75 18.9 66 71 13.5 56.3 0
15:19 1009 29.8 839 24.78 18.8 65.9 68 12.9 55.3 0
15:20 1009 29.8 839 24.78 18.7 65.7 72 13.6 56.5 0
15:21 1009 29.8 839 24.78 18.7 65.6 71 13.4 56 0
15:22 1009 29.8 839 24.78 18.6 65.6 72 13.6 56.4 0
15:23 1009 29.8 839 24.78 18.6 65.5 74 14.1 57.3 0
15:24 1009 29.8 839 24.78 18.6 65.5 70 13 55.5 0
15:25 1009 29.8 839 24.78 18.7 65.6 64 11.9 53.4 0
15:26 1009 29.8 839 24.78 18.8 65.8 62 11.4 52.5 0
15:27 1010 29.83 839 24.78 18.9 65.9 66 12.6 54.6 0
15:28 1010 29.83 839 24.78 19 66.2 71 13.8 56.8 0
15:29 1010 29.83 839 24.78 19.2 66.5 68 13.2 55.8 0
15:30 1009 29.8 839 24.78 19.3 66.7 68 13.3 55.9 0
15:31 1010 29.83 839 24.78 19.3 66.8 72 14.2 57.6 0
15:32 1010 29.83 839 24.78 19.4 66.8 66 12.9 55.3 0
15:33 1010 29.83 839 24.78 19.3 66.8 65 12.7 54.8 0
15:34 1010 29.83 839 24.78 19.3 66.7 64 12.3 54.1 0
15:35 1010 29.83 839 24.78 19.2 66.6 63 12.1 53.9 0
15:36 1010 29.83 839 24.78 19.2 66.5 68 13.3 56 0
15:37 1010 29.83 839 24.78 19.2 66.5 63 12 53.6 0
15:38 1010 29.83 839 24.78 19.3 66.8 63 12.2 54 0
15:39 1010 29.83 839 24.78 19.4 66.9 67 13.1 55.7 0
15:40 1010 29.83 839 24.78 19.5 67.1 61 12 53.6 0
15:41 1010 29.83 839 24.78 19.7 67.4 59 11.7 53 0
15:42 1010 29.83 839 24.78 20 68 54 10.5 50.8 0
15:43 1009 29.8 839 24.78 20.2 68.4 56 11.4 52.6 0
15:44 1010 29.83 839 24.78 20.5 68.8 59 12.3 54.1 0
15:45 1010 29.83 839 24.78 20.7 69.3 59 12.6 54.7 0
15:46 1010 29.83 839 24.78 21 69.8 58 12.6 54.7 0
15:47 1010 29.83 839 24.78 21 69.9 52 10.9 51.6 0
15:48 1010 29.83 839 24.78 20.7 69.3 55 11.5 52.6 0
15:49 1010 29.83 839 24.78 20.3 68.6 53 10.6 51.1 0
15:50 1010 29.83 839 24.78 19.9 67.8 48 8.6 47.6 0
15:51 1010 29.83 839 24.78 19.6 67.3 49 8.7 47.7 0
15:52 1010 29.83 839 24.78 19.5 67.2 47 8.2 46.7 0
15:53 1010 29.83 839 24.78 19.6 67.2 52 9.5 49.1 0
15:54 1009 29.8 839 24.78 19.7 67.4 48 8.4 47.2 0
15:55 1009 29.8 839 24.78 19.8 67.6 57 11 51.9 0
15:56 1010 29.83 839 24.78 19.9 67.7 47 8.2 46.8 0
15:57 1010 29.83 839 24.78 19.8 67.7 50 9.2 48.6 0
15:58 1010 29.83 839 24.78 19.8 67.6 52 9.9 49.8 0
15:59 1010 29.83 839 24.78 19.8 67.7 49 8.9 48.1 0
16:00 1010 29.83 839 24.78 20 67.9 51 9.8 49.6 0
16:01 1010 29.83 839 24.78 20 68 50 9.5 49.1 0
16:02 1010 29.83 839 24.78 20 68 43 7.3 45.2 0
16:03 1010 29.83 839 24.78 20 68.1 45 7.8 46 0
16:04 1010 29.83 839 24.78 20 67.9 46 8.3 46.9 0
16:05 1010 29.83 839 24.78 19.9 67.9 50 9.2 48.6 0
16:06 1010 29.83 839 24.78 19.9 67.8 49 9.1 48.4 0
16:07 1010 29.83 839 24.78 19.9 67.7 49 9 48.3 0
16:08 1010 29.83 839 24.78 19.8 67.7 49 8.8 47.9 0
16:09 1010 29.83 839 24.78 20 67.9 51 9.5 49.2 0
16:10 1010 29.83 839 24.78 20.2 68.3 46 8.5 47.2 0
16:11 1010 29.83 839 24.78 20 67.9 46 8.1 46.6 0
16:12 1010 29.83 839 24.78 19.6 67.4 51 9.3 48.7 0
16:13 1010 29.83 839 24.78 19.6 67.2 49 8.7 47.7 0
16:14 1010 29.83 839 24.78 19.6 67.2 46 7.7 45.9 0
16:15 1010 29.83 839 24.78 19.6 67.3 49 8.6 47.5 0
16:16 1010 29.83 839 24.78 19.6 67.3 46 7.8 46 0
16:17 1010 29.83 839 24.78 19.6 67.3 52 9.7 49.5 0
16:18 1010 29.83 839 24.78 19.8 67.6 47 8.3 46.9 0
16:19 1010 29.83 839 24.78 19.9 67.7 45 7.7 45.8 0
16:20 1010 29.83 839 24.78 19.9 67.9 48 8.8 47.9 0
16:21 1010 29.83 839 24.78 19.9 67.9 45 8 46.3 0
16:22 1010 29.83 839 24.78 20 67.9 43 7.1 44.7 0
16:23 1010 29.83 839 24.78 20 68.1 51 9.6 49.3 0
16:24 1010 29.83 839 24.78 20.1 68.2 45 7.9 46.2 0
16:25 1010 29.83 839 24.78 20.1 68.1 46 8.2 46.8 0
16:26 1010 29.83 839 24.78 19.9 67.8 49 9.1 48.4 0
16:27 1010 29.83 839 24.78 19.8 67.6 51 9.4 49 0
16:28 1010 29.83 839 24.78 19.7 67.5 43 7 44.6 0
16:29 1010 29.83 839 24.78 19.7 67.5 44 7.4 45.3 0
16:30 1010 29.83 839 24.78 19.7 67.5 47 8.2 46.7 0
16:31 1010 29.83 839 24.78 19.6 67.3 50 8.9 48.1 0
16:32 1010 29.83 839 24.78 19.6 67.3 48 8.4 47.1 0
16:33 1010 29.83 839 24.78 19.7 67.4 46 7.7 45.9 0
16:34 1010 29.83 839 24.78 19.7 67.4 50 9 48.2 0
16:35 1010 29.83 839 24.78 19.6 67.2 46 7.8 46.1 0
16:36 1010 29.83 839 24.78 19.5 67.1 47 8.1 46.6 0
16:37 1010 29.83 839 24.78 19.3 66.8 51 8.9 48.1 0
16:38 1010 29.83 840 24.81 19.2 66.6 52 9.3 48.7 0
16:39 1010 29.83 840 24.81 19 66.3 48 7.9 46.2 0
16:40 1010 29.83 840 24.81 18.9 66.1 47 7.5 45.4 0
16:41 1010 29.83 840 24.81 18.9 66.1 49 8.2 46.7 0
16:42 1011 29.85 840 24.81 19 66.2 46 7.4 45.3 0
16:43 1011 29.85 840 24.81 19.1 66.4 50 8.7 47.6 0
16:44 1010 29.83 840 24.81 19.2 66.6 48 8 46.4 0
16:45 1010 29.83 840 24.81 19.4 66.8 50 8.9 48 0
16:46 1010 29.83 840 24.81 19.4 66.9 52 9.5 49.1 0
16:47 1010 29.83 839 24.78 19.4 67 45 7.4 45.4 0
16:48 1010 29.83 839 24.78 19.5 67.1 51 9.3 48.7 0
16:49 1010 29.83 839 24.78 19.5 67.1 49 8.6 47.4 0
16:50 1010 29.83 839 24.78 19.5 67 47 8 46.4 0
16:51 1010 29.83 839 24.78 19.4 66.9 46 7.7 45.9 0
16:52 1010 29.83 839 24.78 19.4 66.8 47 7.9 46.3 0
16:53 1010 29.83 839 24.78 19.3 66.7 49 8.4 47.1 0
16:54 1010 29.83 839 24.78 19.3 66.7 55 10.1 50.2 0
16:55 1010 29.83 840 24.81 19.3 66.8 47 7.8 46 0
16:56 1010 29.83 840 24.81 19.3 66.7 49 8.4 47.1 0
16:57 1010 29.83 840 24.81 19.2 66.6 49 8.5 47.2 0
16:58 1010 29.83 840 24.81 19.3 66.7 46 7.5 45.6 0
16:59 1011 29.85 840 24.81 19.2 66.6 46 7.5 45.6 0
17:00 1011 29.85 840 24.81 19.2 66.6 44 6.7 44 0
17:01 1011 29.85 840 24.81 19.1 66.4 48 8.1 46.6 0
17:02 1011 29.85 840 24.81 19.1 66.5 46 7.2 45 0
17:03 1011 29.85 840 24.81 19.1 66.5 47 7.6 45.7 0
17:04 1011 29.85 840 24.81 19.1 66.4 44 6.7 44 0
17:05 1011 29.85 840 24.81 19.1 66.4 46 7.3 45.2 0
17:06 1011 29.85 840 24.81 19.1 66.4 45 7.2 44.9 0
17:07 1011 29.85 840 24.81 19.1 66.5 46 7.4 45.4 0
17:08 1011 29.85 840 24.81 19.1 66.4 47 7.8 46 0
17:09 1011 29.85 840 24.81 18.9 66.1 49 8.1 46.6 0
17:10 1011 29.85 840 24.81 18.8 65.8 50 8.2 46.7 0
17:11 1011 29.85 840 24.81 18.8 65.9 53 9.2 48.6 0
17:12 1011 29.85 840 24.81 19 66.1 48 7.9 46.2 0
17:13 1011 29.85 840 24.81 19.1 66.4 47 7.7 45.8 0
17:14 1011 29.85 840 24.81 19.1 66.4 48 8 46.3 0
17:15 1011 29.85 840 24.81 19 66.3 48 7.9 46.2 0
17:16 1011 29.85 840 24.81 19 66.3 46 7.3 45.1 0
17:17 1011 29.85 840 24.81 19.2 66.5 48 7.9 46.2 0
17:18 1011 29.85 840 24.81 19.3 66.7 49 8.6 47.4 0
17:19 1011 29.85 840 24.81 19.4 66.9 48 8.1 46.6 0
17:20 1011 29.85 840 24.81 19.5 67.1 56 10.6 51 0
17:21 1011 29.85 840 24.81 19.6 67.3 47 8.2 46.8 0
17:22 1011 29.85 840 24.81 19.6 67.2 44 7.2 45 0
17:23 1011 29.85 840 24.81 19.4 66.9 50 8.8 47.8 0
17:24 1011 29.85 840 24.81 19.3 66.8 49 8.6 47.5 0
17:25 1011 29.85 840 24.81 19.3 66.7 48 8.1 46.6 0
17:26 1011 29.85 840 24.81 19.2 66.6 50 8.8 47.8 0
17:27 1011 29.85 840 24.81 19.3 66.7 51 9 48.2 0
17:28 1011 29.85 840 24.81 19.4 66.9 46 7.7 45.8 0
17:29 1011 29.85 840 24.81 19.4 66.9 52 9.4 48.9 0
17:30 1011 29.85 840 24.81 19.4 66.9 49 8.6 47.5 0
17:31 1011 29.85 840 24.81 19.4 66.8 51 9 48.3 0
17:32 1011 29.85 840 24.81 19.3 66.8 54 9.8 49.6 0
17:33 1011 29.85 840 24.81 19.4 67 49 8.5 47.3 0
17:34 1011 29.85 840 24.81 19.4 67 47 7.9 46.2 0
17:35 1011 29.85 840 24.81 19.3 66.7 51 8.9 48.1 0
17:36 1011 29.85 840 24.81 19.2 66.6 50 8.5 47.4 0
17:37 1011 29.85 840 24.81 19.2 66.5 48 7.9 46.2 0
17:38 1011 29.85 840 24.81 19.2 66.5 48 8.1 46.5 0
17:39 1011 29.85 840 24.81 19.2 66.5 46 7.4 45.3 0
17:40 1011 29.85 840 24.81 19.1 66.3 43 6.5 43.7 0
17:41 1011 29.85 840 24.81 19.1 66.3 48 7.9 46.1 0
17:42 1011 29.85 840 24.81 19.1 66.3 46 7.3 45.2 0
17:43 1011 29.85 841 24.83 19 66.1 48 7.8 46 0
17:44 1011 29.85 840 24.81 18.9 66 46 7.1 44.8 0
17:45 1011 29.85 841 24.83 18.9 65.9 46 7 44.6 0
17:46 1011 29.85 841 24.83 18.8 65.9 45 6.9 44.5 0
17:47 1011 29.85 841 24.83 18.7 65.6 47 7.4 45.3 0
17:48 1011 29.85 841 24.83 18.5 65.3 45 6.6 43.8 0
17:49 1011 29.85 841 24.83 18.4 65 46 6.6 43.9 0
17:50 1011 29.85 841 24.83 18.3 65 46 6.8 44.2 0
17:51 1011 29.85 841 24.83 18.2 64.7 45 6 42.9 0
17:52 1011 29.85 841 24.83 17.9 64.2 47 6.5 43.7 0
17:53 1011 29.85 841 24.83 17.8 64 46 6.1 43 0
17:54 1012 29.88 841 24.83 17.6 63.6 46 6 42.9 0
17:55 1012 29.88 841 24.83 17.3 63.2 47 5.9 42.6 0
17:56 1011 29.85 841 24.83 17 62.7 46 5.4 41.8 0
17:57 1012 29.88 841 24.83 16.8 62.3 48 5.9 42.6 0
17:58 1012 29.88 841 24.83 16.6 61.9 49 6 42.9 0
17:59 1012 29.88 841 24.83 16.5 61.6 49 5.7 42.3 0
18:00 1012 29.88 841 24.83 16.3 61.3 49 5.8 42.4 0
18:01 1012 29.88 841 24.83 16.1 61 49 5.6 42 0
18:02 1012 29.88 841 24.83 16 60.7 48 5.2 41.3 0
18:03 1012 29.88 841 24.83 15.8 60.5 49 5.3 41.5 0
18:04 1012 29.88 841 24.83 15.7 60.2 49 5.1 41.1 0
18:05 1012 29.88 841 24.83 15.6 60 50 5.2 41.3 0
18:06 1012 29.88 841 24.83 15.5 59.8 51 5.4 41.7 0
18:07 1012 29.88 841 24.83 15.4 59.8 51 5.6 42 0
18:08 1012 29.88 841 24.83 15.4 59.7 52 5.6 42.2 0
18:09 1012 29.88 841 24.83 15.4 59.7 52 5.6 42.1 0
18:10 1012 29.88 841 24.83 15.4 59.7 51 5.5 42 0
18:11 1012 29.88 841 24.83 15.4 59.6 50 5 41 0
18:12 1012 29.88 842 24.86 15.4 59.7 51 5.3 41.5 0
18:13 1012 29.88 842 24.86 15.3 59.6 52 5.6 42.1 0
18:14 1012 29.88 842 24.86 15.3 59.5 52 5.6 42.1 0
18:15 1013 29.91 842 24.86 15.2 59.3 53 5.7 42.2 0
18:16 1013 29.91 842 24.86 15.1 59.2 51 5.1 41.2 0
18:17 1013 29.91 842 24.86 15.1 59.1 51 5.2 41.3 0
18:18 1013 29.91 842 24.86 15 59 51 5.1 41.1 0
18:19 1013 29.91 842 24.86 14.9 58.9 52 5.2 41.4 0
18:20 1013 29.91 842 24.86 14.8 58.7 53 5.3 41.6 0
18:21 1013 29.91 842 24.86 14.8 58.6 52 5.2 41.4 0
18:22 1013 29.91 842 24.86 14.7 58.5 52 5.1 41.2 0
18:23 1013 29.91 842 24.86 14.7 58.4 52 5.1 41.2 0
18:24 1013 29.91 842 24.86 14.6 58.3 51 4.8 40.6 0
18:25 1013 29.91 842 24.86 14.6 58.2 53 5.1 41.2 0
18:26 1013 29.91 842 24.86 14.5 58.2 53 5.2 41.4 0
18:27 1013 29.91 842 24.86 14.5 58.1 52 4.7 40.5 0
18:28 1013 29.91 842 24.86 14.5 58.1 52 4.9 40.9 0
18:29 1013 29.91 842 24.86 14.5 58.1 53 5.2 41.4 0
18:30 1013 29.91 842 24.86 14.4 58 52 4.9 40.9 0
18:31 1013 29.91 842 24.86 14.5 58 53 5 41 0
18:32 1013 29.91 842 24.86 14.5 58 53 5.1 41.2 0
18:33 1013 29.91 842 24.86 14.4 58 52 4.7 40.4 0
18:34 1013 29.91 842 24.86 14.4 58 52 4.9 40.8 0
18:35 1013 29.91 842 24.86 14.4 58 55 5.6 42 0
18:36 1013 29.91 842 24.86 14.4 57.9 53 5 41 0
18:37 1013 29.91 842 24.86 14.4 57.9 52 4.8 40.6 0
18:38 1013 29.91 842 24.86 14.3 57.8 52 4.6 40.3 0
18:39 1013 29.91 842 24.86 14.4 57.8 52 4.7 40.4 0
18:40 1013 29.91 842 24.86 14.3 57.8 51 4.5 40.1 0
18:41 1013 29.91 842 24.86 14.3 57.7 51 4.5 40.1 0
18:42 1013 29.91 842 24.86 14.3 57.7 51 4.2 39.6 0
18:43 1013 29.91 843 24.89 14.3 57.7 50 4.1 39.4 0
18:44 1013 29.91 843 24.89 14.3 57.7 50 4.2 39.5 0
18:45 1013 29.91 843 24.89 14.2 57.6 50 4 39.2 0
18:46 1014 29.94 843 24.89 14.2 57.5 51 4.3 39.7 0
18:47 1014 29.94 843 24.89 14.1 57.4 50 4 39.2 0
18:48 1014 29.94 843 24.89 14.1 57.3 50 4 39.2 0
18:49 1014 29.94 843 24.89 14 57.1 50 3.9 39 0
18:50 1014 29.94 843 24.89 13.9 57 50 3.8 38.9 0
18:51 1014 29.94 843 24.89 13.9 56.9 51 3.9 39.1 0
18:52 1014 29.94 843 24.89 13.8 56.8 50 3.7 38.6 0
18:53 1014 29.94 843 24.89 13.8 56.8 51 3.9 39.1 0
18:54 1014 29.94 843 24.89 13.7 56.6 51 3.8 38.8 0
18:55 1014 29.94 843 24.89 13.7 56.6 52 4 39.3 0
18:56 1014 29.94 843 24.89 13.6 56.5 53 4.3 39.7 0
18:57 1014 29.94 843 24.89 13.6 56.5 52 4.1 39.4 0
18:58 1014 29.94 843 24.89 13.5 56.3 53 4.3 39.7 0
18:59 1014 29.94 843 24.89 13.4 56.1 53 4.1 39.5 0
19:00 1014 29.94 843 24.89 13.3 56 52 3.8 38.9 0
19:01 1014 29.94 843 24.89 13.3 55.9 53 4 39.1 0
19:02 1014 29.94 844 24.92 13.2 55.7 53 3.8 38.8 0
19:03 1014 29.94 843 24.89 13.1 55.6 52 3.7 38.6 0
19:04 1014 29.94 844 24.92 13 55.4 53 3.7 38.7 0
19:05 1014 29.94 844 24.92 13 55.4 53 3.7 38.6 0
19:06 1014 29.94 844 24.92 13 55.3 53 3.6 38.5 0
19:07 1014 29.94 844 24.92 13 55.3 53 3.7 38.7 0
19:08 1014 29.94 844 24.92 13 55.3 53 3.6 38.5 0
19:09 1014 29.94 844 24.92 12.9 55.2 52 3.3 38 0
19:10 1014 29.94 844 24.92 12.9 55.2 53 3.6 38.4 0
19:11 1015 29.97 844 24.92 12.8 55.1 54 3.7 38.7 0
19:12 1015 29.97 844 24.92 12.8 55 53 3.5 38.3 0
19:13 1015 29.97 844 24.92 12.8 55 53 3.5 38.3 0
19:14 1015 29.97 844 24.92 12.7 54.9 54 3.6 38.5 0
19:15 1015 29.97 844 24.92 12.7 54.8 55 3.9 39.1 0
19:16 1015 29.97 844 24.92 12.7 54.8 55 3.8 38.9 0
19:17 1015 29.97 844 24.92 12.7 54.8 53 3.4 38.2 0
19:18 1015 29.97 844 24.92 12.7 54.8 54 3.6 38.5 0
19:19 1015 29.97 844 24.92 12.7 54.8 54 3.6 38.5 0
19:20 1015 29.97 844 24.92 12.7 54.8 53 3.4 38.1 0
19:21 1015 29.97 844 24.92 12.7 54.8 54 3.6 38.5 0
19:22 1015 29.97 844 24.92 12.7 54.8 53 3.3 38 0
19:23 1015 29.97 844 24.92 12.6 54.8 53 3.3 38 0
19:24 1015 29.97 844 24.92 12.6 54.7 54 3.6 38.4 0
19:25 1015 29.97 844 24.92 12.6 54.7 54 3.7 38.6 0
19:26 1015 29.97 844 24.92 12.6 54.8 53 3.3 37.9 0
19:27 1015 29.97 844 24.92 12.6 54.7 52 3.2 37.8 0
19:28 1015 29.97 844 24.92 12.6 54.6 52 3.1 37.6 0
19:29 1015 29.97 844 24.92 12.5 54.6 54 3.5 38.3 0
19:30 1015 29.97 844 24.92 12.5 54.5 55 3.7 38.6 0
19:31 1015 29.97 844 24.92 12.4 54.4 53 3.3 37.9 0
19:32 1015 29.97 844 24.92 12.5 54.4 54 3.5 38.3 0
19:33 1015 29.97 844 24.92 12.4 54.3 54 3.5 38.3 0
19:34 1015 29.97 844 24.92 12.4 54.2 54 3.3 37.9 0
19:35 1015 29.97 844 24.92 12.4 54.3 54 3.3 38 0
19:36 1015 29.97 845 24.95 12.3 54.2 54 3.4 38 0
19:37 1015 29.97 845 24.95 12.3 54.2 54 3.3 37.9 0
19:38 1016 30 845 24.95 12.3 54.1 53 3.1 37.6 0
19:39 1016 30 845 24.95 12.3 54.1 54 3.2 37.7 0
19:40 1016 30 845 24.95 12.2 54 54 3.3 38 0
19:41 1016 30 845 24.95 12.2 54 54 3.3 37.9 0
19:42 1016 30 845 24.95 12.2 53.9 54 3.1 37.6 0
19:43 1016 30 845 24.95 12.1 53.8 56 3.6 38.5 0
19:44 1016 30 845 24.95 12.1 53.8 56 3.8 38.8 0
19:45 1016 30 845 24.95 12 53.7 56 3.6 38.5 0
19:46 1016 30 845 24.95 12 53.6 55 3.3 38 0
19:47 1016 30 845 24.95 12 53.6 55 3.2 37.7 0
19:48 1016 30 845 24.95 12 53.6 55 3.3 37.9 0
19:49 1016 30 845 24.95 12 53.6 56 3.5 38.3 0
19:50 1016 30 845 24.95 12 53.5 54 3.1 37.5 0
19:51 1016 30 845 24.95 12 53.5 55 3.2 37.7 0
19:52 1016 30 845 24.95 11.9 53.5 55 3.3 38 0
19:53 1016 30 845 24.95 12 53.5 55 3.2 37.8 0
19:54 1016 30 845 24.95 11.9 53.5 54 2.9 37.2 0
19:55 1016 30 845 24.95 11.9 53.5 54 3 37.5 0
19:56 1016 30 845 24.95 11.9 53.5 54 3.1 37.6 0
19:57 1016 30 845 24.95 11.9 53.4 56 3.4 38.2 0
19:58 1016 30 845 24.95 11.9 53.4 57 3.7 38.6 0
19:59 1016 30 845 24.95 11.8 53.2 55 3.2 37.7 0
20:00 1016 30 845 24.95 11.8 53.3 56 3.5 38.3 0
20:01 1016 30 846 24.98 11.8 53.2 56 3.4 38.1 0
20:02 1016 30 846 24.98 11.7 53.1 56 3.3 38 0
20:03 1017 30.03 846 24.98 11.7 53 57 3.5 38.3 0
20:04 1017 30.03 846 24.98 11.6 52.9 57 3.4 38 0
20:05 1016 30 846 24.98 11.6 52.9 57 3.3 38 0
20:06 1017 30.03 846 24.98 11.6 52.9 57 3.5 38.2 0
20:07 1017 30.03 846 24.98 11.6 52.9 58 3.6 38.5 0
20:08 1017 30.03 846 24.98 11.5 52.7 60 4 39.2 0
20:09 1017 30.03 846 24.98 11.4 52.6 61 4.1 39.5 0
20:10 1017 30.03 846 24.98 11.4 52.5 61 4.1 39.4 0
20:11 1017 30.03 846 24.98 11.3 52.4 62 4.3 39.7 0
20:12 1017 30.03 846 24.98 11.2 52.2 60 3.7 38.7 0
20:13 1016 30 846 24.98 11.2 52.2 60 3.9 39.1 0
20:14 1017 30.03 846 24.98 11.2 52.2 61 4.2 39.5 0
20:15 1017 30.03 846 24.98 11.2 52.1 61 4 39.3 0
20:16 1017 30.03 846 24.98 11.1 52 61 3.8 38.9 0
20:17 1017 30.03 846 24.98 11.2 52.1 62 4.1 39.4 0
20:18 1017 30.03 846 24.98 11.2 52.1 60 3.8 38.8 0
20:19 1017 30.03 846 24.98 11.2 52.1 61 3.9 39.1 0
20:20 1017 30.03 846 24.98 11.1 52 60 3.7 38.6 0
20:21 1017 30.03 846 24.98 11.2 52.1 60 3.7 38.7 0
20:22 1017 30.03 846 24.98 11.2 52.1 59 3.5 38.4 0
20:23 1017 30.03 846 24.98 11.2 52.1 59 3.5 38.3 0
20:24 1017 30.03 846 24.98 11.2 52.2 60 3.7 38.6 0
20:25 1017 30.03 846 24.98 11.2 52.1 61 4 39.3 0
20:26 1017 30.03 846 24.98 11.1 52 62 4.2 39.6 0
20:27 1017 30.03 846 24.98 11.1 52 64 4.5 40.1 0
20:28 1017 30.03 846 24.98 11 51.8 64 4.5 40.1 0
20:29 1017 30.03 846 24.98 11 51.7 62 4 39.3 0
20:30 1017 30.03 846 24.98 10.9 51.7 62 3.9 39.1 0
20:31 1017 30.03 846 24.98 10.9 51.7 62 3.9 39 0
20:32 1017 30.03 846 24.98 11 51.8 61 3.9 39 0
20:33 1017 30.03 846 24.98 11 51.8 63 4.3 39.7 0
20:34 1017 30.03 846 24.98 10.9 51.7 64 4.5 40.1 0
20:35 1017 30.03 846 24.98 10.9 51.6 61 3.8 38.9 0
20:36 1017 30.03 846 24.98 10.9 51.6 63 4.1 39.5 0
20:37 1017 30.03 846 24.98 10.9 51.6 62 3.9 39.1 0
20:38 1017 30.03 846 24.98 10.9 51.6 63 4.1 39.3 0
20:39 1017 30.03 846 24.98 10.9 51.6 64 4.4 39.8 0
20:40 1017 30.03 846 24.98 10.9 51.5 62 4 39.2 0
20:41 1017 30.03 846 24.98 10.8 51.5 63 4.2 39.5 0
20:42 1017 30.03 846 24.98 10.8 51.4 65 4.6 40.2 0
20:43 1017 30.03 846 24.98 10.7 51.3 66 4.6 40.3 0
20:44 1017 30.03 846 24.98 10.6 51.1 66 4.5 40.1 0
20:45 1017 30.03 846 24.98 10.6 51.1 66 4.6 40.4 0
20:46 1017 30.03 846 24.98 10.6 51 66 4.5 40 0
20:47 1017 30.03 846 24.98 10.5 50.9 67 4.6 40.3 0
20:48 1017 30.03 846 24.98 10.4 50.8 65 4.1 39.5 0
20:49 1017 30.03 847 25.01 10.5 50.8 67 4.6 40.3 0
20:50 1017 30.03 847 25.01 10.4 50.8 68 4.8 40.7 0
20:51 1017 30.03 847 25.01 10.3 50.6 69 4.9 40.8 0
20:52 1018 30.06 847 25.01 10.3 50.5 69 5 40.9 0
20:53 1018 30.06 847 25.01 10.3 50.5 69 4.8 40.7 0
20:54 1018 30.06 847 25.01 10.2 50.4 69 4.9 40.9 0
20:55 1018 30.06 847 25.01 10.2 50.4 69 4.9 40.7 0
20:56 1018 30.06 847 25.01 10.2 50.4 69 4.9 40.8 0
20:57 1018 30.06 847 25.01 10.2 50.3 71 5.1 41.1 0
20:58 1018 30.06 847 25.01 10.1 50.2 70 5 41 0
20:59 1018 30.06 847 25.01 10.1 50.2 67 4.3 39.8 0
21:00 1018 30.06 847 25.01 10.2 50.3 65 4 39.2 0
21:01 1018 30.06 847 25.01 10.3 50.5 68 4.7 40.5 0
21:02 1018 30.06 847 25.01 10.3 50.5 69 4.9 40.9 0
21:03 1018 30.06 847 25.01 10.3 50.5 70 5.2 41.3 0
21:04 1018 30.06 847 25.01 10.2 50.4 70 5.1 41.1 0
21:05 1018 30.06 847 25.01 10.2 50.4 64 3.8 38.9 0
21:06 1018 30.06 847 25.01 10.3 50.6 66 4.2 39.6 0
21:07 1018 30.06 847 25.01 10.4 50.7 65 4 39.2 0
21:08 1018 30.06 847 25.01 10.4 50.8 66 4.4 39.9 0
21:09 1018 30.06 847 25.01 10.4 50.8 67 4.6 40.2 0
21:10 1018 30.06 847 25.01 10.4 50.8 68 4.8 40.7 0
21:11 1018 30.06 847 25.01 10.4 50.7 70 5.1 41.3 0
21:12 1018 30.06 847 25.01 10.3 50.6 69 4.9 40.9 0
21:13 1018 30.06 847 25.01 10.3 50.5 66 4.2 39.6 0
21:14 1018 30.06 847 25.01 10.3 50.5 68 4.6 40.4 0
21:15 1018 30.06 847 25.01 10.3 50.5 66 4.2 39.6 0
21:16 1018 30.06 847 25.01 10.2 50.4 66 4.2 39.6 0
21:17 1018 30.06 847 25.01 10.2 50.3 67 4.3 39.8 0
21:18 1018 30.06 847 25.01 10.1 50.2 69 4.7 40.5 0
21:19 1018 30.06 847 25.01 10.1 50.1 69 4.6 40.2 0
21:20 1018 30.06 847 25.01 10 49.9 69 4.6 40.3 0
21:21 1018 30.06 847 25.01 10 49.9 69 4.5 40.1 0
21:22 1018 30.06 847 25.01 9.9 49.7 70 4.6 40.2 0
21:23 1018 30.06 847 25.01 9.8 49.6 72 5 41 0
21:24 1018 30.06 847 25.01 9.7 49.5 71 4.7 40.4 0
21:25 1018 30.06 847 25.01 9.7 49.4 73 5 41 0
21:26 1018 30.06 848 25.04 9.6 49.3 69 4.1 39.4 0
21:27 1018 30.06 848 25.04 9.6 49.3 71 4.7 40.4 0
21:28 1018 30.06 848 25.04 9.6 49.3 73 5.1 41.2 0
21:29 1018 30.06 848 25.04 9.6 49.3 72 4.8 40.7 0
21:30 1018 30.06 848 25.04 9.5 49.1 71 4.5 40.1 0
21:31 1019 30.09 848 25.04 9.5 49.1 74 5.1 41.3 0
21:32 1019 30.09 848 25.04 9.5 49.1 75 5.2 41.4 0
21:33 1019 30.09 848 25.04 9.5 49 77 5.6 42 0
21:34 1019 30.09 848 25.04 9.4 48.9 75 5.2 41.3 0
21:35 1019 30.09 848 25.04 9.3 48.8 75 5.2 41.3 0
21:36 1019 30.09 848 25.04 9.3 48.8 76 5.3 41.5 0
21:37 1019 30.09 848 25.04 9.4 48.9 75 5.2 41.3 0
21:38 1019 30.09 848 25.04 9.4 48.8 72 4.7 40.4 0
21:39 1019 30.09 848 25.04 9.4 49 69 4.1 39.4 0
21:40 1019 30.09 848 25.04 9.5 49.1 70 4.4 39.8 0
21:41 1019 30.09 848 25.04 9.6 49.4 68 4.1 39.4 0
21:42 1019 30.09 848 25.04 9.6 49.4 67 3.9 39 0
21:43 1019 30.09 848 25.04 9.7 49.4 70 4.5 40.1 0
21:44 1019 30.09 848 25.04 9.6 49.3 72 4.8 40.6 0
21:45 1019 30.09 848 25.04 9.6 49.2 74 5.1 41.2 0
21:46 1019 30.09 848 25.04 9.4 48.9 74 5.1 41.1 0
21:47 1019 30.09 848 25.04 9.3 48.8 75 5.2 41.3 0
21:48 1019 30.09 848 25.04 9.3 48.7 77 5.5 42 0
21:49 1019 30.09 848 25.04 9.2 48.5 76 5.1 41.2 0
21:50 1019 30.09 848 25.04 9.1 48.4 73 4.6 40.3 0
21:51 1019 30.09 848 25.04 9.2 48.5 69 3.8 38.9 0
21:52 1019 30.09 848 25.04 9.2 48.6 71 4.3 39.7 0
21:53 1019 30.09 848 25.04 9.3 48.7 72 4.5 40.1 0
21:54 1019 30.09 848 25.04 9.2 48.6 75 5.1 41.2 0
21:55 1019 30.09 848 25.04 9.2 48.5 76 5.3 41.5 0
21:56 1019 30.09 848 25.04 9.1 48.3 71 4.1 39.3 0
21:57 1019 30.09 848 25.04 9.2 48.5 73 4.6 40.2 0
21:58 1019 30.09 848 25.04 9.2 48.5 75 5 40.9 0
21:59 1019 30.09 848 25.04 9.1 48.3 73 4.6 40.2 0
22:00 1019 30.09 848 25.04 9.1 48.4 72 4.4 40 0
22:01 1019 30.09 848 25.04 9.1 48.3 74 4.8 40.6 0
22:02 1019 30.09 848 25.04 9.1 48.3 71 4 39.3 0
22:03 1019 30.09 848 25.04 9.2 48.5 70 4.1 39.3 0
22:04 1019 30.09 848 25.04 9.1 48.4 61 2 35.6 0
22:05 1019 30.09 848 25.04 9.3 48.7 65 3 37.4 0
22:06 1019 30.09 848 25.04 9.3 48.7 68 3.8 38.9 0
22:07 1019 30.09 848 25.04 9.2 48.6 72 4.4 40 0
22:08 1019 30.09 848 25.04 9.1 48.3 73 4.5 40 0
22:09 1019 30.09 848 25.04 8.9 48 70 3.8 38.9 0
22:10 1019 30.09 848 25.04 8.9 48.1 67 3.1 37.7 0
22:11 1019 30.09 848 25.04 9 48.2 65 2.7 36.9 0
22:12 1019 30.09 848 25.04 9.1 48.3 71 4 39.2 0
22:13 1019 30.09 848 25.04 9 48.1 70 3.7 38.7 0
22:14 1019 30.09 848 25.04 8.9 48 70 3.8 38.8 0
22:15 1019 30.09 848 25.04 8.8 47.9 72 4 39.3 0
22:16 1019 30.09 848 25.04 8.7 47.7 71 3.7 38.7 0
22:17 1019 30.09 848 25.04 8.8 47.8 70 3.6 38.5 0
22:18 1019 30.09 848 25.04 8.8 47.9 73 4.3 39.7 0
22:19 1019 30.09 848 25.04 8.7 47.6 74 4.3 39.7 0
22:20 1019 30.09 848 25.04 8.6 47.5 74 4.3 39.7 0
22:21 1019 30.09 848 25.04 8.6 47.4 74 4.2 39.5 0
22:22 1019 30.09 848 25.04 8.5 47.3 74 4.1 39.4 0
22:23 1019 30.09 848 25.04 8.6 47.4 68 3.1 37.5 0
22:24 1019 30.09 848 25.04 8.9 48 69 3.5 38.2 0
22:25 1019 30.09 848 25.04 8.9 48 70 3.7 38.6 0
22:26 1019 30.09 848 25.04 8.8 47.9 69 3.5 38.3 0
22:27 1019 30.09 848 25.04 8.8 47.9 70 3.7 38.7 0
22:28 1019 30.09 848 25.04 8.8 47.8 73 4.3 39.7 0
22:29 1019 30.09 848 25.04 8.7 47.7 71 3.7 38.7 0
22:30 1019 30.09 848 25.04 8.7 47.7 72 4.1 39.3 0
22:31 1019 30.09 848 25.04 8.7 47.7 73 4.1 39.3 0
22:32 1019 30.09 848 25.04 8.7 47.6 74 4.3 39.8 0
22:33 1019 30.09 848 25.04 8.6 47.4 73 3.9 39.1 0
22:34 1019 30.09 848 25.04 8.6 47.4 74 4.3 39.7 0
22:35 1019 30.09 848 25.04 8.6 47.4 74 4.2 39.5 0
22:36 1019 30.09 848 25.04 8.6 47.4 74 4.3 39.7 0
22:37 1019 30.09 848 25.04 8.5 47.4 73 4.1 39.3 0
22:38 1019 30.09 848 25.04 8.6 47.4 73 4 39.2 0
22:39 1019 30.09 848 25.04 8.6 47.4 73 4 39.3 0
22:40 1019 30.09 848 25.04 8.6 47.4 73 4.1 39.3 0
22:41 1019 30.09 848 25.04 8.5 47.4 73 4 39.2 0
22:42 1019 30.09 848 25.04 8.5 47.3 74 4.1 39.4 0
22:43 1019 30.09 848 25.04 8.5 47.3 75 4.4 39.9 0
22:44 1019 30.09 848 25.04 8.5 47.3 72 3.7 38.6 0
22:45 1019 30.09 848 25.04 8.6 47.5 73 4.1 39.5 0
22:46 1019 30.09 848 25.04 8.6 47.4 73 4.1 39.4 0
22:47 1019 30.09 848 25.04 8.5 47.3 74 4.2 39.6 0
22:48 1019 30.09 848 25.04 8.5 47.3 72 3.8 38.9 0
22:49 1019 30.09 848 25.04 8.6 47.5 72 3.8 38.8 0
22:50 1019 30.09 848 25.04 8.6 47.5 75 4.4 40 0
22:51 1019 30.09 848 25.04 8.5 47.4 74 4.3 39.7 0
22:52 1019 30.09 848 25.04 8.5 47.3 75 4.3 39.8 0
22:53 1019 30.09 848 25.04 8.5 47.2 75 4.3 39.7 0
22:54 1019 30.09 848 25.04 8.4 47.2 75 4.2 39.6 0
22:55 1019 30.09 848 25.04 8.4 47.2 74 4.1 39.4 0
22:56 1019 30.09 848 25.04 8.4 47.2 74 4.1 39.5 0
22:57 1019 30.09 848 25.04 8.5 47.2 75 4.3 39.7 0
22:58 1019 30.09 848 25.04 8.4 47.2 73 3.9 39.1 0
22:59 1019 30.09 848 25.04 8.6 47.4 72 3.7 38.7 0
23:00 1019 30.09 848 25.04 8.7 47.7 70 3.6 38.5 0
23:01 1019 30.09 848 25.04 8.9 48 70 3.7 38.6 0
23:02 1019 30.09 848 25.04 8.9 48 71 4 39.1 0
23:03 1019 30.09 848 25.04 8.9 47.9 73 4.3 39.7 0
23:04 1019 30.09 848 25.04 8.8 47.8 73 4.1 39.5 0
23:05 1019 30.09 848 25.04 8.8 47.8 72 4 39.1 0
23:06 1019 30.09 848 25.04 8.8 47.8 72 4.1 39.3 0
23:07 1019 30.09 848 25.04 8.8 47.8 73 4.2 39.5 0
23:08 1019 30.09 848 25.04 8.7 47.7 73 4.2 39.5 0
23:09 1019 30.09 848 25.04 8.7 47.7 72 4 39.2 0
23:10 1019 30.09 848 25.04 8.8 47.8 72 4.1 39.4 0
23:11 1019 30.09 848 25.04 8.8 47.8 72 4.1 39.3 0
23:12 1019 30.09 848 25.04 8.8 47.8 71 3.9 39 0
23:13 1019 30.09 848 25.04 8.8 47.8 70 3.7 38.6 0
23:14 1019 30.09 848 25.04 8.9 47.9 72 4 39.3 0
23:15 1019 30.09 848 25.04 8.9 47.9 72 4 39.2 0
23:16 1019 30.09 848 25.04 8.8 47.9 73 4.2 39.5 0
23:17 1019 30.09 848 25.04 8.7 47.6 72 3.9 38.9 0
23:18 1019 30.09 848 25.04 8.7 47.7 70 3.6 38.5 0
23:19 1019 30.09 848 25.04 8.8 47.9 70 3.7 38.6 0
23:20 1019 30.09 848 25.04 8.8 47.9 71 3.8 38.9 0
23:21 1019 30.09 848 25.04 8.8 47.9 71 3.9 39 0
23:22 1019 30.09 848 25.04 8.8 47.8 71 3.8 38.9 0
23:23 1019 30.09 848 25.04 8.8 47.9 71 3.8 38.8 0
23:24 1019 30.09 848 25.04 8.9 47.9 72 4.1 39.4 0
23:25 1019 30.09 848 25.04 8.8 47.9 72 4.2 39.5 0
23:26 1019 30.09 848 25.04 8.8 47.8 71 3.9 39 0
23:27 1019 30.09 848 25.04 8.8 47.8 70 3.7 38.7 0
23:28 1019 30.09 848 25.04 8.9 47.9 70 3.7 38.6 0
23:29 1019 30.09 848 25.04 8.9 48 71 4 39.1 0
23:30 1019 30.09 848 25.04 8.9 47.9 72 4 39.3 0
23:31 1019 30.09 848 25.04 8.8 47.9 71 3.9 39 0
23:32 1019 30.09 848 25.04 8.8 47.8 70 3.7 38.7 0
23:33 1019 30.09 848 25.04 8.8 47.9 68 3.3 38 0
23:34 1019 30.09 848 25.04 8.9 48 68 3.4 38.2 0
23:35 1019 30.09 848 25.04 9 48.1 67 3.1 37.6 0
23:36 1019 30.09 848 25.04 9 48.2 69 3.6 38.5 0
23:37 1019 30.09 848 25.04 9 48.2 70 3.9 39 0
23:38 1019 30.09 848 25.04 8.9 48 68 3.4 38.1 0
23:39 1019 30.09 848 25.04 8.9 48 68 3.3 38 0
23:40 1019 30.09 848 25.04 8.9 48.1 68 3.4 38.1 0
23:41 1019 30.09 848 25.04 9 48.2 68 3.5 38.3 0
23:42 1019 30.09 848 25.04 8.9 48.1 70 3.7 38.7 0
23:43 1019 30.09 848 25.04 8.9 48 69 3.6 38.4 0
23:44 1019 30.09 848 25.04 8.9 47.9 68 3.4 38.1 0
23:45 1019 30.09 848 25.04 8.8 47.9 69 3.5 38.2 0
23:46 1019 30.09 848 25.04 8.9 47.9 67 3.1 37.6 0
23:47 1019 30.09 848 25.04 9 48.2 65 2.9 37.2 0
23:48 1019 30.09 848 25.04 9.1 48.4 62 2.3 36.2 0
23:49 1019 30.09 849 25.07 9.2 48.5 66 3.1 37.6 0
23:50 1019 30.09 849 25.07 9.2 48.5 65 3 37.4 0
23:51 1019 30.09 849 25.07 9.1 48.4 66 3.2 37.8 0
23:52 1019 30.09 849 25.07 9 48.3 67 3.3 37.9 0
23:53 1019 30.09 849 25.07 8.9 48 68 3.4 38.1 0
23:54 1019 30.09 849 25.07 8.9 47.9 68 3.4 38.1 0
23:55 1019 30.09 849 25.07 8.9 47.9 67 3 37.4 0
23:56 1019 30.09 849 25.07 8.9 48 65 2.7 36.9 0
23:57 1019 30.09 849 25.07 9 48.2 62 2.1 35.8 0
23:58 1019 30.09 849 25.07 9.1 48.3 65 2.9 37.2 0
23:59 1019 30.09 849 25.07 9 48.2 66 3 37.3 0
24:00 1020 30.12 849 25.07 8.9 48 66 3 37.3 0